<?xml version="1.0" encoding="UTF-8" standalone="no" ?>
<gpx xmlns="http://www.topografix.com/GPX/1/1" xmlns:xsi="http://www.w3.org/2001/XMLSchema-instance" xsi:schemaLocation="http://www.topografix.com/GPX/1/1 http://www.topografix.com/GPX/1/1/gpx.xsd" version="1.1" creator="VisuGPX - https://www.visugpx.com">
  <metadata>
    <name>Perso-HteMarne-23-07-05-IsEnBassigny-Langues-Mennouveaux-Buxières-Ninville-Les Etiquets-Is</name>
    <desc><![CDATA[Rando dans mon Bassigny
]]></desc>
  </metadata>
  <trk>
    <name><![CDATA[23-07-05-Is-Langues-Mennouveaux-Buxières-Ninville-Les Etiquets-Is]]></name>
    <trkseg>
      <trkpt lat="48.03412" lon="5.44417">
        <ele>403</ele>
        <time>2023-07-05T09:04:46Z</time>
      </trkpt>
      <trkpt lat="48.0341" lon="5.4441">
        <ele>401</ele>
        <time>2023-07-05T09:05:05Z</time>
      </trkpt>
      <trkpt lat="48.03411" lon="5.44411">
        <ele>401</ele>
        <time>2023-07-05T09:05:42Z</time>
      </trkpt>
      <trkpt lat="48.0341" lon="5.44418">
        <ele>401</ele>
        <time>2023-07-05T09:05:52Z</time>
      </trkpt>
      <trkpt lat="48.03407" lon="5.44415">
        <ele>400</ele>
        <time>2023-07-05T09:05:55Z</time>
      </trkpt>
      <trkpt lat="48.03412" lon="5.44403">
        <ele>401</ele>
        <time>2023-07-05T09:06:01Z</time>
      </trkpt>
      <trkpt lat="48.03423" lon="5.44362">
        <ele>400</ele>
        <time>2023-07-05T09:06:24Z</time>
      </trkpt>
      <trkpt lat="48.03434" lon="5.44333">
        <ele>400</ele>
        <time>2023-07-05T09:06:41Z</time>
      </trkpt>
      <trkpt lat="48.03441" lon="5.4429">
        <ele>399</ele>
        <time>2023-07-05T09:07:03Z</time>
      </trkpt>
      <trkpt lat="48.03447" lon="5.44253">
        <ele>399</ele>
        <time>2023-07-05T09:07:23Z</time>
      </trkpt>
      <trkpt lat="48.03453" lon="5.44214">
        <ele>400</ele>
        <time>2023-07-05T09:07:44Z</time>
      </trkpt>
      <trkpt lat="48.03458" lon="5.44176">
        <ele>399</ele>
        <time>2023-07-05T09:08:04Z</time>
      </trkpt>
      <trkpt lat="48.0346" lon="5.44165">
        <ele>400</ele>
        <time>2023-07-05T09:08:10Z</time>
      </trkpt>
      <trkpt lat="48.03464" lon="5.44136">
        <ele>401</ele>
        <time>2023-07-05T09:08:26Z</time>
      </trkpt>
      <trkpt lat="48.03469" lon="5.44104">
        <ele>401</ele>
        <time>2023-07-05T09:08:44Z</time>
      </trkpt>
      <trkpt lat="48.03474" lon="5.44076">
        <ele>400</ele>
        <time>2023-07-05T09:09:00Z</time>
      </trkpt>
      <trkpt lat="48.0348" lon="5.44041">
        <ele>400</ele>
        <time>2023-07-05T09:09:20Z</time>
      </trkpt>
      <trkpt lat="48.03491" lon="5.44002">
        <ele>399</ele>
        <time>2023-07-05T09:09:43Z</time>
      </trkpt>
      <trkpt lat="48.03503" lon="5.43957">
        <ele>398</ele>
        <time>2023-07-05T09:10:08Z</time>
      </trkpt>
      <trkpt lat="48.03513" lon="5.43917">
        <ele>398</ele>
        <time>2023-07-05T09:10:31Z</time>
      </trkpt>
      <trkpt lat="48.03525" lon="5.43886">
        <ele>399</ele>
        <time>2023-07-05T09:10:49Z</time>
      </trkpt>
      <trkpt lat="48.0354" lon="5.43849">
        <ele>398</ele>
        <time>2023-07-05T09:11:11Z</time>
      </trkpt>
      <trkpt lat="48.03553" lon="5.4382">
        <ele>398</ele>
        <time>2023-07-05T09:11:31Z</time>
      </trkpt>
      <trkpt lat="48.03566" lon="5.43783">
        <ele>399</ele>
        <time>2023-07-05T09:11:55Z</time>
      </trkpt>
      <trkpt lat="48.03573" lon="5.43744">
        <ele>400</ele>
        <time>2023-07-05T09:12:17Z</time>
      </trkpt>
      <trkpt lat="48.03574" lon="5.43739">
        <ele>398</ele>
        <time>2023-07-05T09:12:20Z</time>
      </trkpt>
      <trkpt lat="48.03579" lon="5.43702">
        <ele>397</ele>
        <time>2023-07-05T09:12:41Z</time>
      </trkpt>
      <trkpt lat="48.03586" lon="5.43666">
        <ele>398</ele>
        <time>2023-07-05T09:13:01Z</time>
      </trkpt>
      <trkpt lat="48.03593" lon="5.43634">
        <ele>396</ele>
        <time>2023-07-05T09:13:21Z</time>
      </trkpt>
      <trkpt lat="48.03599" lon="5.43614">
        <ele>395</ele>
        <time>2023-07-05T09:13:34Z</time>
      </trkpt>
      <trkpt lat="48.03611" lon="5.43582">
        <ele>397</ele>
        <time>2023-07-05T09:13:54Z</time>
      </trkpt>
      <trkpt lat="48.03626" lon="5.43545">
        <ele>396</ele>
        <time>2023-07-05T09:14:16Z</time>
      </trkpt>
      <trkpt lat="48.03638" lon="5.43514">
        <ele>395</ele>
        <time>2023-07-05T09:14:35Z</time>
      </trkpt>
      <trkpt lat="48.03651" lon="5.43474">
        <ele>394</ele>
        <time>2023-07-05T09:14:59Z</time>
      </trkpt>
      <trkpt lat="48.03664" lon="5.43441">
        <ele>393</ele>
        <time>2023-07-05T09:15:19Z</time>
      </trkpt>
      <trkpt lat="48.03673" lon="5.43406">
        <ele>394</ele>
        <time>2023-07-05T09:15:39Z</time>
      </trkpt>
      <trkpt lat="48.03681" lon="5.43371">
        <ele>392</ele>
        <time>2023-07-05T09:15:59Z</time>
      </trkpt>
      <trkpt lat="48.03692" lon="5.4333">
        <ele>392</ele>
        <time>2023-07-05T09:16:23Z</time>
      </trkpt>
      <trkpt lat="48.03705" lon="5.43288">
        <ele>391</ele>
        <time>2023-07-05T09:16:47Z</time>
      </trkpt>
      <trkpt lat="48.03722" lon="5.43251">
        <ele>391</ele>
        <time>2023-07-05T09:17:10Z</time>
      </trkpt>
      <trkpt lat="48.03741" lon="5.43221">
        <ele>390</ele>
        <time>2023-07-05T09:17:33Z</time>
      </trkpt>
      <trkpt lat="48.03759" lon="5.43189">
        <ele>389</ele>
        <time>2023-07-05T09:17:56Z</time>
      </trkpt>
      <trkpt lat="48.03782" lon="5.43154">
        <ele>387</ele>
        <time>2023-07-05T09:18:21Z</time>
      </trkpt>
      <trkpt lat="48.03802" lon="5.43119">
        <ele>386</ele>
        <time>2023-07-05T09:18:46Z</time>
      </trkpt>
      <trkpt lat="48.03815" lon="5.43086">
        <ele>384</ele>
        <time>2023-07-05T09:19:06Z</time>
      </trkpt>
      <trkpt lat="48.0383" lon="5.43053">
        <ele>386</ele>
        <time>2023-07-05T09:19:28Z</time>
      </trkpt>
      <trkpt lat="48.03847" lon="5.43021">
        <ele>386</ele>
        <time>2023-07-05T09:19:50Z</time>
      </trkpt>
      <trkpt lat="48.03864" lon="5.42988">
        <ele>386</ele>
        <time>2023-07-05T09:20:11Z</time>
      </trkpt>
      <trkpt lat="48.03883" lon="5.42953">
        <ele>385</ele>
        <time>2023-07-05T09:20:35Z</time>
      </trkpt>
      <trkpt lat="48.03899" lon="5.4292">
        <ele>384</ele>
        <time>2023-07-05T09:20:58Z</time>
      </trkpt>
      <trkpt lat="48.03918" lon="5.42886">
        <ele>385</ele>
        <time>2023-07-05T09:21:23Z</time>
      </trkpt>
      <trkpt lat="48.03939" lon="5.4286">
        <ele>385</ele>
        <time>2023-07-05T09:21:46Z</time>
      </trkpt>
      <trkpt lat="48.0396" lon="5.42838">
        <ele>384</ele>
        <time>2023-07-05T09:22:07Z</time>
      </trkpt>
      <trkpt lat="48.03982" lon="5.42816">
        <ele>383</ele>
        <time>2023-07-05T09:22:30Z</time>
      </trkpt>
      <trkpt lat="48.04004" lon="5.42792">
        <ele>382</ele>
        <time>2023-07-05T09:22:52Z</time>
      </trkpt>
      <trkpt lat="48.04025" lon="5.42769">
        <ele>381</ele>
        <time>2023-07-05T09:23:13Z</time>
      </trkpt>
      <trkpt lat="48.04048" lon="5.42752">
        <ele>381</ele>
        <time>2023-07-05T09:23:34Z</time>
      </trkpt>
      <trkpt lat="48.04072" lon="5.42737">
        <ele>380</ele>
        <time>2023-07-05T09:23:56Z</time>
      </trkpt>
      <trkpt lat="48.0408" lon="5.42733">
        <ele>380</ele>
        <time>2023-07-05T09:24:09Z</time>
      </trkpt>
      <trkpt lat="48.04101" lon="5.42718">
        <ele>381</ele>
        <time>2023-07-05T09:24:28Z</time>
      </trkpt>
      <trkpt lat="48.04118" lon="5.42693">
        <ele>380</ele>
        <time>2023-07-05T09:24:49Z</time>
      </trkpt>
      <trkpt lat="48.04126" lon="5.42677">
        <ele>380</ele>
        <time>2023-07-05T09:25:00Z</time>
      </trkpt>
      <trkpt lat="48.04144" lon="5.4265">
        <ele>380</ele>
        <time>2023-07-05T09:25:21Z</time>
      </trkpt>
      <trkpt lat="48.04166" lon="5.42622">
        <ele>380</ele>
        <time>2023-07-05T09:25:45Z</time>
      </trkpt>
      <trkpt lat="48.04189" lon="5.42596">
        <ele>379</ele>
        <time>2023-07-05T09:26:09Z</time>
      </trkpt>
      <trkpt lat="48.04211" lon="5.42571">
        <ele>378</ele>
        <time>2023-07-05T09:26:32Z</time>
      </trkpt>
      <trkpt lat="48.04213" lon="5.42568">
        <ele>378</ele>
        <time>2023-07-05T09:26:48Z</time>
      </trkpt>
      <trkpt lat="48.04212" lon="5.42569">
        <ele>379</ele>
        <time>2023-07-05T09:27:23Z</time>
      </trkpt>
      <trkpt lat="48.04214" lon="5.42568">
        <ele>378</ele>
        <time>2023-07-05T09:27:50Z</time>
      </trkpt>
      <trkpt lat="48.04238" lon="5.42538">
        <ele>378</ele>
        <time>2023-07-05T09:28:13Z</time>
      </trkpt>
      <trkpt lat="48.04257" lon="5.42511">
        <ele>378</ele>
        <time>2023-07-05T09:28:35Z</time>
      </trkpt>
      <trkpt lat="48.04278" lon="5.42492">
        <ele>378</ele>
        <time>2023-07-05T09:28:57Z</time>
      </trkpt>
      <trkpt lat="48.04308" lon="5.42475">
        <ele>378</ele>
        <time>2023-07-05T09:29:20Z</time>
      </trkpt>
      <trkpt lat="48.04336" lon="5.4246">
        <ele>378</ele>
        <time>2023-07-05T09:29:43Z</time>
      </trkpt>
      <trkpt lat="48.04362" lon="5.42453">
        <ele>377</ele>
        <time>2023-07-05T09:30:03Z</time>
      </trkpt>
      <trkpt lat="48.04389" lon="5.42456">
        <ele>376</ele>
        <time>2023-07-05T09:30:27Z</time>
      </trkpt>
      <trkpt lat="48.04415" lon="5.42456">
        <ele>377</ele>
        <time>2023-07-05T09:30:49Z</time>
      </trkpt>
      <trkpt lat="48.04437" lon="5.42448">
        <ele>376</ele>
        <time>2023-07-05T09:31:07Z</time>
      </trkpt>
      <trkpt lat="48.04465" lon="5.42431">
        <ele>376</ele>
        <time>2023-07-05T09:31:31Z</time>
      </trkpt>
      <trkpt lat="48.04488" lon="5.42414">
        <ele>376</ele>
        <time>2023-07-05T09:31:52Z</time>
      </trkpt>
      <trkpt lat="48.04512" lon="5.42396">
        <ele>376</ele>
        <time>2023-07-05T09:32:14Z</time>
      </trkpt>
      <trkpt lat="48.04537" lon="5.42381">
        <ele>375</ele>
        <time>2023-07-05T09:32:36Z</time>
      </trkpt>
      <trkpt lat="48.04562" lon="5.42369">
        <ele>376</ele>
        <time>2023-07-05T09:32:57Z</time>
      </trkpt>
      <trkpt lat="48.04586" lon="5.42357">
        <ele>374</ele>
        <time>2023-07-05T09:33:17Z</time>
      </trkpt>
      <trkpt lat="48.04607" lon="5.42345">
        <ele>376</ele>
        <time>2023-07-05T09:33:36Z</time>
      </trkpt>
      <trkpt lat="48.04635" lon="5.4233">
        <ele>374</ele>
        <time>2023-07-05T09:34:00Z</time>
      </trkpt>
      <trkpt lat="48.04657" lon="5.4232">
        <ele>374</ele>
        <time>2023-07-05T09:34:18Z</time>
      </trkpt>
      <trkpt lat="48.04678" lon="5.42307">
        <ele>374</ele>
        <time>2023-07-05T09:34:37Z</time>
      </trkpt>
      <trkpt lat="48.04703" lon="5.4229">
        <ele>374</ele>
        <time>2023-07-05T09:35:00Z</time>
      </trkpt>
      <trkpt lat="48.04726" lon="5.42268">
        <ele>374</ele>
        <time>2023-07-05T09:35:22Z</time>
      </trkpt>
      <trkpt lat="48.04749" lon="5.42245">
        <ele>373</ele>
        <time>2023-07-05T09:35:45Z</time>
      </trkpt>
      <trkpt lat="48.04772" lon="5.42221">
        <ele>373</ele>
        <time>2023-07-05T09:36:09Z</time>
      </trkpt>
      <trkpt lat="48.04794" lon="5.42199">
        <ele>372</ele>
        <time>2023-07-05T09:36:30Z</time>
      </trkpt>
      <trkpt lat="48.04814" lon="5.42179">
        <ele>371</ele>
        <time>2023-07-05T09:36:50Z</time>
      </trkpt>
      <trkpt lat="48.04842" lon="5.42154">
        <ele>371</ele>
        <time>2023-07-05T09:37:17Z</time>
      </trkpt>
      <trkpt lat="48.04864" lon="5.42134">
        <ele>371</ele>
        <time>2023-07-05T09:37:37Z</time>
      </trkpt>
      <trkpt lat="48.04885" lon="5.42118">
        <ele>371</ele>
        <time>2023-07-05T09:37:57Z</time>
      </trkpt>
      <trkpt lat="48.04907" lon="5.42098">
        <ele>370</ele>
        <time>2023-07-05T09:38:18Z</time>
      </trkpt>
      <trkpt lat="48.04929" lon="5.42071">
        <ele>368</ele>
        <time>2023-07-05T09:38:42Z</time>
      </trkpt>
      <trkpt lat="48.04952" lon="5.42047">
        <ele>369</ele>
        <time>2023-07-05T09:39:04Z</time>
      </trkpt>
      <trkpt lat="48.04976" lon="5.42022">
        <ele>369</ele>
        <time>2023-07-05T09:39:28Z</time>
      </trkpt>
      <trkpt lat="48.04997" lon="5.41995">
        <ele>368</ele>
        <time>2023-07-05T09:39:51Z</time>
      </trkpt>
      <trkpt lat="48.05018" lon="5.41972">
        <ele>368</ele>
        <time>2023-07-05T09:40:13Z</time>
      </trkpt>
      <trkpt lat="48.05037" lon="5.41951">
        <ele>368</ele>
        <time>2023-07-05T09:40:33Z</time>
      </trkpt>
      <trkpt lat="48.05056" lon="5.41934">
        <ele>368</ele>
        <time>2023-07-05T09:40:51Z</time>
      </trkpt>
      <trkpt lat="48.05075" lon="5.41916">
        <ele>368</ele>
        <time>2023-07-05T09:41:11Z</time>
      </trkpt>
      <trkpt lat="48.05098" lon="5.41896">
        <ele>368</ele>
        <time>2023-07-05T09:41:34Z</time>
      </trkpt>
      <trkpt lat="48.05119" lon="5.41878">
        <ele>368</ele>
        <time>2023-07-05T09:41:56Z</time>
      </trkpt>
      <trkpt lat="48.05139" lon="5.41859">
        <ele>367</ele>
        <time>2023-07-05T09:42:16Z</time>
      </trkpt>
      <trkpt lat="48.05157" lon="5.41835">
        <ele>367</ele>
        <time>2023-07-05T09:42:35Z</time>
      </trkpt>
      <trkpt lat="48.05179" lon="5.41811">
        <ele>368</ele>
        <time>2023-07-05T09:42:58Z</time>
      </trkpt>
      <trkpt lat="48.05198" lon="5.41794">
        <ele>368</ele>
        <time>2023-07-05T09:43:16Z</time>
      </trkpt>
      <trkpt lat="48.05221" lon="5.4178">
        <ele>368</ele>
        <time>2023-07-05T09:43:36Z</time>
      </trkpt>
      <trkpt lat="48.05246" lon="5.41768">
        <ele>368</ele>
        <time>2023-07-05T09:43:59Z</time>
      </trkpt>
      <trkpt lat="48.05266" lon="5.41754">
        <ele>368</ele>
        <time>2023-07-05T09:44:17Z</time>
      </trkpt>
      <trkpt lat="48.05286" lon="5.41737">
        <ele>368</ele>
        <time>2023-07-05T09:44:36Z</time>
      </trkpt>
      <trkpt lat="48.05307" lon="5.4172">
        <ele>367</ele>
        <time>2023-07-05T09:44:56Z</time>
      </trkpt>
      <trkpt lat="48.05325" lon="5.41703">
        <ele>368</ele>
        <time>2023-07-05T09:45:14Z</time>
      </trkpt>
      <trkpt lat="48.0534" lon="5.41695">
        <ele>369</ele>
        <time>2023-07-05T09:45:34Z</time>
      </trkpt>
      <trkpt lat="48.0535" lon="5.41685">
        <ele>369</ele>
        <time>2023-07-05T09:45:50Z</time>
      </trkpt>
      <trkpt lat="48.05363" lon="5.41671">
        <ele>370</ele>
        <time>2023-07-05T09:46:07Z</time>
      </trkpt>
      <trkpt lat="48.05379" lon="5.41648">
        <ele>370</ele>
        <time>2023-07-05T09:46:26Z</time>
      </trkpt>
      <trkpt lat="48.05389" lon="5.41624">
        <ele>369</ele>
        <time>2023-07-05T09:46:43Z</time>
      </trkpt>
      <trkpt lat="48.05389" lon="5.41622">
        <ele>368</ele>
        <time>2023-07-05T09:46:44Z</time>
      </trkpt>
      <trkpt lat="48.05396" lon="5.4159">
        <ele>369</ele>
        <time>2023-07-05T09:47:04Z</time>
      </trkpt>
      <trkpt lat="48.05406" lon="5.41556">
        <ele>368</ele>
        <time>2023-07-05T09:47:24Z</time>
      </trkpt>
      <trkpt lat="48.0541" lon="5.41526">
        <ele>367</ele>
        <time>2023-07-05T09:47:42Z</time>
      </trkpt>
      <trkpt lat="48.05416" lon="5.41497">
        <ele>367</ele>
        <time>2023-07-05T09:47:58Z</time>
      </trkpt>
      <trkpt lat="48.05418" lon="5.41486">
        <ele>367</ele>
        <time>2023-07-05T09:48:05Z</time>
      </trkpt>
      <trkpt lat="48.05426" lon="5.41471">
        <ele>368</ele>
        <time>2023-07-05T09:48:16Z</time>
      </trkpt>
      <trkpt lat="48.0543" lon="5.41466">
        <ele>368</ele>
        <time>2023-07-05T09:48:20Z</time>
      </trkpt>
      <trkpt lat="48.05448" lon="5.41442">
        <ele>367</ele>
        <time>2023-07-05T09:48:41Z</time>
      </trkpt>
      <trkpt lat="48.05468" lon="5.41418">
        <ele>368</ele>
        <time>2023-07-05T09:49:00Z</time>
      </trkpt>
      <trkpt lat="48.05469" lon="5.41416">
        <ele>368</ele>
        <time>2023-07-05T09:49:02Z</time>
      </trkpt>
      <trkpt lat="48.05484" lon="5.4139">
        <ele>368</ele>
        <time>2023-07-05T09:49:21Z</time>
      </trkpt>
      <trkpt lat="48.05492" lon="5.41379">
        <ele>368</ele>
        <time>2023-07-05T09:49:36Z</time>
      </trkpt>
      <trkpt lat="48.05504" lon="5.41372">
        <ele>368</ele>
        <time>2023-07-05T09:49:50Z</time>
      </trkpt>
      <trkpt lat="48.05522" lon="5.41361">
        <ele>369</ele>
        <time>2023-07-05T09:50:06Z</time>
      </trkpt>
      <trkpt lat="48.05538" lon="5.41347">
        <ele>369</ele>
        <time>2023-07-05T09:50:21Z</time>
      </trkpt>
      <trkpt lat="48.05553" lon="5.41331">
        <ele>370</ele>
        <time>2023-07-05T09:50:38Z</time>
      </trkpt>
      <trkpt lat="48.0557" lon="5.41309">
        <ele>370</ele>
        <time>2023-07-05T09:50:56Z</time>
      </trkpt>
      <trkpt lat="48.05577" lon="5.41295">
        <ele>371</ele>
        <time>2023-07-05T09:51:05Z</time>
      </trkpt>
      <trkpt lat="48.05584" lon="5.41264">
        <ele>371</ele>
        <time>2023-07-05T09:51:24Z</time>
      </trkpt>
      <trkpt lat="48.05592" lon="5.41235">
        <ele>370</ele>
        <time>2023-07-05T09:51:43Z</time>
      </trkpt>
      <trkpt lat="48.05604" lon="5.41207">
        <ele>370</ele>
        <time>2023-07-05T09:52:01Z</time>
      </trkpt>
      <trkpt lat="48.05615" lon="5.41176">
        <ele>370</ele>
        <time>2023-07-05T09:52:20Z</time>
      </trkpt>
      <trkpt lat="48.05633" lon="5.41147">
        <ele>369</ele>
        <time>2023-07-05T09:52:39Z</time>
      </trkpt>
      <trkpt lat="48.05637" lon="5.41133">
        <ele>368</ele>
        <time>2023-07-05T09:52:47Z</time>
      </trkpt>
      <trkpt lat="48.05644" lon="5.41095">
        <ele>367</ele>
        <time>2023-07-05T09:53:09Z</time>
      </trkpt>
      <trkpt lat="48.05656" lon="5.4106">
        <ele>368</ele>
        <time>2023-07-05T09:53:31Z</time>
      </trkpt>
      <trkpt lat="48.0567" lon="5.4103">
        <ele>369</ele>
        <time>2023-07-05T09:53:52Z</time>
      </trkpt>
      <trkpt lat="48.05684" lon="5.41">
        <ele>367</ele>
        <time>2023-07-05T09:54:14Z</time>
      </trkpt>
      <trkpt lat="48.05698" lon="5.40973">
        <ele>366</ele>
        <time>2023-07-05T09:54:34Z</time>
      </trkpt>
      <trkpt lat="48.05716" lon="5.40941">
        <ele>366</ele>
        <time>2023-07-05T09:54:57Z</time>
      </trkpt>
      <trkpt lat="48.05731" lon="5.40906">
        <ele>366</ele>
        <time>2023-07-05T09:55:20Z</time>
      </trkpt>
      <trkpt lat="48.05741" lon="5.4087">
        <ele>365</ele>
        <time>2023-07-05T09:55:42Z</time>
      </trkpt>
      <trkpt lat="48.05745" lon="5.40851">
        <ele>361</ele>
        <time>2023-07-05T09:55:52Z</time>
      </trkpt>
      <trkpt lat="48.05745" lon="5.40849">
        <ele>361</ele>
        <time>2023-07-05T09:55:53Z</time>
      </trkpt>
      <trkpt lat="48.05747" lon="5.40844">
        <ele>365</ele>
        <time>2023-07-05T09:55:56Z</time>
      </trkpt>
      <trkpt lat="48.05747" lon="5.40842">
        <ele>365</ele>
        <time>2023-07-05T09:55:57Z</time>
      </trkpt>
      <trkpt lat="48.05758" lon="5.40805">
        <ele>364</ele>
        <time>2023-07-05T09:56:18Z</time>
      </trkpt>
      <trkpt lat="48.0577" lon="5.40778">
        <ele>364</ele>
        <time>2023-07-05T09:56:35Z</time>
      </trkpt>
      <trkpt lat="48.05779" lon="5.40741">
        <ele>364</ele>
        <time>2023-07-05T09:56:57Z</time>
      </trkpt>
      <trkpt lat="48.05786" lon="5.40707">
        <ele>364</ele>
        <time>2023-07-05T09:57:17Z</time>
      </trkpt>
      <trkpt lat="48.05793" lon="5.40675">
        <ele>365</ele>
        <time>2023-07-05T09:57:35Z</time>
      </trkpt>
      <trkpt lat="48.05802" lon="5.40641">
        <ele>364</ele>
        <time>2023-07-05T09:57:57Z</time>
      </trkpt>
      <trkpt lat="48.05814" lon="5.4061">
        <ele>365</ele>
        <time>2023-07-05T09:58:17Z</time>
      </trkpt>
      <trkpt lat="48.05829" lon="5.40576">
        <ele>364</ele>
        <time>2023-07-05T09:58:40Z</time>
      </trkpt>
      <trkpt lat="48.05843" lon="5.40547">
        <ele>364</ele>
        <time>2023-07-05T09:59:00Z</time>
      </trkpt>
      <trkpt lat="48.0586" lon="5.40517">
        <ele>363</ele>
        <time>2023-07-05T09:59:22Z</time>
      </trkpt>
      <trkpt lat="48.05867" lon="5.40507">
        <ele>364</ele>
        <time>2023-07-05T09:59:31Z</time>
      </trkpt>
      <trkpt lat="48.05885" lon="5.4048">
        <ele>364</ele>
        <time>2023-07-05T09:59:52Z</time>
      </trkpt>
      <trkpt lat="48.05904" lon="5.40455">
        <ele>364</ele>
        <time>2023-07-05T10:00:14Z</time>
      </trkpt>
      <trkpt lat="48.05921" lon="5.40432">
        <ele>364</ele>
        <time>2023-07-05T10:00:33Z</time>
      </trkpt>
      <trkpt lat="48.05937" lon="5.40413">
        <ele>364</ele>
        <time>2023-07-05T10:00:51Z</time>
      </trkpt>
      <trkpt lat="48.05942" lon="5.40408">
        <ele>365</ele>
        <time>2023-07-05T10:00:56Z</time>
      </trkpt>
      <trkpt lat="48.05956" lon="5.40389">
        <ele>364</ele>
        <time>2023-07-05T10:01:13Z</time>
      </trkpt>
      <trkpt lat="48.05969" lon="5.40371">
        <ele>364</ele>
        <time>2023-07-05T10:01:29Z</time>
      </trkpt>
      <trkpt lat="48.05986" lon="5.40345">
        <ele>364</ele>
        <time>2023-07-05T10:01:49Z</time>
      </trkpt>
      <trkpt lat="48.06001" lon="5.40324">
        <ele>365</ele>
        <time>2023-07-05T10:02:07Z</time>
      </trkpt>
      <trkpt lat="48.06018" lon="5.40298">
        <ele>365</ele>
        <time>2023-07-05T10:02:28Z</time>
      </trkpt>
      <trkpt lat="48.06041" lon="5.40267">
        <ele>364</ele>
        <time>2023-07-05T10:02:54Z</time>
      </trkpt>
      <trkpt lat="48.06057" lon="5.40245">
        <ele>364</ele>
        <time>2023-07-05T10:03:12Z</time>
      </trkpt>
      <trkpt lat="48.06057" lon="5.40244">
        <ele>364</ele>
        <time>2023-07-05T10:03:13Z</time>
      </trkpt>
      <trkpt lat="48.06076" lon="5.40221">
        <ele>364</ele>
        <time>2023-07-05T10:03:34Z</time>
      </trkpt>
      <trkpt lat="48.06095" lon="5.40199">
        <ele>364</ele>
        <time>2023-07-05T10:03:54Z</time>
      </trkpt>
      <trkpt lat="48.06113" lon="5.40175">
        <ele>364</ele>
        <time>2023-07-05T10:04:15Z</time>
      </trkpt>
      <trkpt lat="48.06131" lon="5.40153">
        <ele>364</ele>
        <time>2023-07-05T10:04:36Z</time>
      </trkpt>
      <trkpt lat="48.06149" lon="5.40135">
        <ele>364</ele>
        <time>2023-07-05T10:04:56Z</time>
      </trkpt>
      <trkpt lat="48.06172" lon="5.40127">
        <ele>364</ele>
        <time>2023-07-05T10:05:15Z</time>
      </trkpt>
      <trkpt lat="48.06194" lon="5.40127">
        <ele>364</ele>
        <time>2023-07-05T10:05:33Z</time>
      </trkpt>
      <trkpt lat="48.06215" lon="5.40127">
        <ele>364</ele>
        <time>2023-07-05T10:05:52Z</time>
      </trkpt>
      <trkpt lat="48.06235" lon="5.40129">
        <ele>365</ele>
        <time>2023-07-05T10:06:09Z</time>
      </trkpt>
      <trkpt lat="48.0626" lon="5.40129">
        <ele>365</ele>
        <time>2023-07-05T10:06:31Z</time>
      </trkpt>
      <trkpt lat="48.06282" lon="5.40129">
        <ele>366</ele>
        <time>2023-07-05T10:06:50Z</time>
      </trkpt>
      <trkpt lat="48.06302" lon="5.40129">
        <ele>368</ele>
        <time>2023-07-05T10:07:08Z</time>
      </trkpt>
      <trkpt lat="48.06325" lon="5.40128">
        <ele>368</ele>
        <time>2023-07-05T10:07:28Z</time>
      </trkpt>
      <trkpt lat="48.06349" lon="5.40125">
        <ele>371</ele>
        <time>2023-07-05T10:07:49Z</time>
      </trkpt>
      <trkpt lat="48.0637" lon="5.40122">
        <ele>371</ele>
        <time>2023-07-05T10:08:08Z</time>
      </trkpt>
      <trkpt lat="48.06391" lon="5.40119">
        <ele>373</ele>
        <time>2023-07-05T10:08:26Z</time>
      </trkpt>
      <trkpt lat="48.06413" lon="5.40119">
        <ele>373</ele>
        <time>2023-07-05T10:08:47Z</time>
      </trkpt>
      <trkpt lat="48.06432" lon="5.40123">
        <ele>375</ele>
        <time>2023-07-05T10:09:05Z</time>
      </trkpt>
      <trkpt lat="48.06452" lon="5.40125">
        <ele>375</ele>
        <time>2023-07-05T10:09:22Z</time>
      </trkpt>
      <trkpt lat="48.06471" lon="5.40124">
        <ele>376</ele>
        <time>2023-07-05T10:09:40Z</time>
      </trkpt>
      <trkpt lat="48.06489" lon="5.4012">
        <ele>375</ele>
        <time>2023-07-05T10:09:57Z</time>
      </trkpt>
      <trkpt lat="48.0651" lon="5.40113">
        <ele>377</ele>
        <time>2023-07-05T10:10:16Z</time>
      </trkpt>
      <trkpt lat="48.06528" lon="5.40108">
        <ele>377</ele>
        <time>2023-07-05T10:10:31Z</time>
      </trkpt>
      <trkpt lat="48.06542" lon="5.40099">
        <ele>377</ele>
        <time>2023-07-05T10:10:45Z</time>
      </trkpt>
      <trkpt lat="48.06559" lon="5.40089">
        <ele>379</ele>
        <time>2023-07-05T10:11:03Z</time>
      </trkpt>
      <trkpt lat="48.06575" lon="5.40076">
        <ele>379</ele>
        <time>2023-07-05T10:11:19Z</time>
      </trkpt>
      <trkpt lat="48.06592" lon="5.40064">
        <ele>381</ele>
        <time>2023-07-05T10:11:36Z</time>
      </trkpt>
      <trkpt lat="48.06608" lon="5.40052">
        <ele>381</ele>
        <time>2023-07-05T10:11:53Z</time>
      </trkpt>
      <trkpt lat="48.06622" lon="5.4004">
        <ele>382</ele>
        <time>2023-07-05T10:12:08Z</time>
      </trkpt>
      <trkpt lat="48.06643" lon="5.40028">
        <ele>383</ele>
        <time>2023-07-05T10:12:28Z</time>
      </trkpt>
      <trkpt lat="48.06663" lon="5.40014">
        <ele>383</ele>
        <time>2023-07-05T10:12:47Z</time>
      </trkpt>
      <trkpt lat="48.06684" lon="5.39995">
        <ele>382</ele>
        <time>2023-07-05T10:13:09Z</time>
      </trkpt>
      <trkpt lat="48.06703" lon="5.39977">
        <ele>382</ele>
        <time>2023-07-05T10:13:28Z</time>
      </trkpt>
      <trkpt lat="48.06726" lon="5.39963">
        <ele>381</ele>
        <time>2023-07-05T10:13:48Z</time>
      </trkpt>
      <trkpt lat="48.06741" lon="5.39957">
        <ele>381</ele>
        <time>2023-07-05T10:14:03Z</time>
      </trkpt>
      <trkpt lat="48.06766" lon="5.39952">
        <ele>381</ele>
        <time>2023-07-05T10:14:22Z</time>
      </trkpt>
      <trkpt lat="48.06783" lon="5.39941">
        <ele>383</ele>
        <time>2023-07-05T10:14:39Z</time>
      </trkpt>
      <trkpt lat="48.06799" lon="5.39931">
        <ele>384</ele>
        <time>2023-07-05T10:14:57Z</time>
      </trkpt>
      <trkpt lat="48.06807" lon="5.39927">
        <ele>384</ele>
        <time>2023-07-05T10:15:17Z</time>
      </trkpt>
      <trkpt lat="48.06807" lon="5.39925">
        <ele>384</ele>
        <time>2023-07-05T10:15:19Z</time>
      </trkpt>
      <trkpt lat="48.0682" lon="5.39905">
        <ele>386</ele>
        <time>2023-07-05T10:15:35Z</time>
      </trkpt>
      <trkpt lat="48.06829" lon="5.39896">
        <ele>386</ele>
        <time>2023-07-05T10:15:47Z</time>
      </trkpt>
      <trkpt lat="48.06838" lon="5.39904">
        <ele>387</ele>
        <time>2023-07-05T10:16:03Z</time>
      </trkpt>
      <trkpt lat="48.06839" lon="5.39905">
        <ele>386</ele>
        <time>2023-07-05T10:16:18Z</time>
      </trkpt>
      <trkpt lat="48.06836" lon="5.3991">
        <ele>385</ele>
        <time>2023-07-05T10:16:41Z</time>
      </trkpt>
      <trkpt lat="48.06836" lon="5.39911">
        <ele>386</ele>
        <time>2023-07-05T10:17:10Z</time>
      </trkpt>
      <trkpt lat="48.06835" lon="5.39914">
        <ele>386</ele>
        <time>2023-07-05T10:17:38Z</time>
      </trkpt>
      <trkpt lat="48.06835" lon="5.39902">
        <ele>386</ele>
        <time>2023-07-05T10:18:03Z</time>
      </trkpt>
      <trkpt lat="48.06834" lon="5.39898">
        <ele>386</ele>
        <time>2023-07-05T10:18:05Z</time>
      </trkpt>
      <trkpt lat="48.0683" lon="5.39893">
        <ele>386</ele>
        <time>2023-07-05T10:18:09Z</time>
      </trkpt>
      <trkpt lat="48.0683" lon="5.39889">
        <ele>386</ele>
        <time>2023-07-05T10:18:12Z</time>
      </trkpt>
      <trkpt lat="48.06847" lon="5.39869">
        <ele>386</ele>
        <time>2023-07-05T10:18:32Z</time>
      </trkpt>
      <trkpt lat="48.06856" lon="5.39856">
        <ele>387</ele>
        <time>2023-07-05T10:18:44Z</time>
      </trkpt>
      <trkpt lat="48.06878" lon="5.3984">
        <ele>390</ele>
        <time>2023-07-05T10:19:05Z</time>
      </trkpt>
      <trkpt lat="48.06888" lon="5.39819">
        <ele>391</ele>
        <time>2023-07-05T10:19:21Z</time>
      </trkpt>
      <trkpt lat="48.06898" lon="5.3979">
        <ele>393</ele>
        <time>2023-07-05T10:19:40Z</time>
      </trkpt>
      <trkpt lat="48.06905" lon="5.39766">
        <ele>395</ele>
        <time>2023-07-05T10:19:56Z</time>
      </trkpt>
      <trkpt lat="48.06916" lon="5.39733">
        <ele>397</ele>
        <time>2023-07-05T10:20:18Z</time>
      </trkpt>
      <trkpt lat="48.06925" lon="5.39709">
        <ele>399</ele>
        <time>2023-07-05T10:20:35Z</time>
      </trkpt>
      <trkpt lat="48.06938" lon="5.39705">
        <ele>400</ele>
        <time>2023-07-05T10:20:49Z</time>
      </trkpt>
      <trkpt lat="48.06955" lon="5.39729">
        <ele>401</ele>
        <time>2023-07-05T10:21:11Z</time>
      </trkpt>
      <trkpt lat="48.06973" lon="5.39744">
        <ele>404</ele>
        <time>2023-07-05T10:21:31Z</time>
      </trkpt>
      <trkpt lat="48.06981" lon="5.39745">
        <ele>406</ele>
        <time>2023-07-05T10:21:39Z</time>
      </trkpt>
      <trkpt lat="48.06987" lon="5.39746">
        <ele>407</ele>
        <time>2023-07-05T10:21:45Z</time>
      </trkpt>
      <trkpt lat="48.07008" lon="5.39752">
        <ele>409</ele>
        <time>2023-07-05T10:22:04Z</time>
      </trkpt>
      <trkpt lat="48.07018" lon="5.39745">
        <ele>410</ele>
        <time>2023-07-05T10:22:22Z</time>
      </trkpt>
      <trkpt lat="48.07021" lon="5.39738">
        <ele>409</ele>
        <time>2023-07-05T10:22:28Z</time>
      </trkpt>
      <trkpt lat="48.07027" lon="5.39718">
        <ele>409</ele>
        <time>2023-07-05T10:22:49Z</time>
      </trkpt>
      <trkpt lat="48.07028" lon="5.39718">
        <ele>408</ele>
        <time>2023-07-05T10:22:58Z</time>
      </trkpt>
      <trkpt lat="48.07029" lon="5.3971">
        <ele>409</ele>
        <time>2023-07-05T10:23:03Z</time>
      </trkpt>
      <trkpt lat="48.07044" lon="5.39683">
        <ele>410</ele>
        <time>2023-07-05T10:23:23Z</time>
      </trkpt>
      <trkpt lat="48.0705" lon="5.39681">
        <ele>411</ele>
        <time>2023-07-05T10:23:38Z</time>
      </trkpt>
      <trkpt lat="48.07057" lon="5.39685">
        <ele>411</ele>
        <time>2023-07-05T10:23:50Z</time>
      </trkpt>
      <trkpt lat="48.07048" lon="5.39684">
        <ele>409</ele>
        <time>2023-07-05T10:24:02Z</time>
      </trkpt>
      <trkpt lat="48.07046" lon="5.39681">
        <ele>411</ele>
        <time>2023-07-05T10:24:09Z</time>
      </trkpt>
      <trkpt lat="48.07063" lon="5.3969">
        <ele>412</ele>
        <time>2023-07-05T10:24:28Z</time>
      </trkpt>
      <trkpt lat="48.07055" lon="5.39683">
        <ele>411</ele>
        <time>2023-07-05T10:24:47Z</time>
      </trkpt>
      <trkpt lat="48.07052" lon="5.39677">
        <ele>412</ele>
        <time>2023-07-05T10:25:05Z</time>
      </trkpt>
      <trkpt lat="48.07054" lon="5.39677">
        <ele>412</ele>
        <time>2023-07-05T10:25:37Z</time>
      </trkpt>
      <trkpt lat="48.07056" lon="5.39678">
        <ele>412</ele>
        <time>2023-07-05T10:26:07Z</time>
      </trkpt>
      <trkpt lat="48.07056" lon="5.39677">
        <ele>412</ele>
        <time>2023-07-05T10:26:28Z</time>
      </trkpt>
      <trkpt lat="48.07065" lon="5.3964">
        <ele>413</ele>
        <time>2023-07-05T10:26:51Z</time>
      </trkpt>
      <trkpt lat="48.0707" lon="5.39626">
        <ele>412</ele>
        <time>2023-07-05T10:26:59Z</time>
      </trkpt>
      <trkpt lat="48.0708" lon="5.39586">
        <ele>413</ele>
        <time>2023-07-05T10:27:21Z</time>
      </trkpt>
      <trkpt lat="48.0709" lon="5.39554">
        <ele>414</ele>
        <time>2023-07-05T10:27:40Z</time>
      </trkpt>
      <trkpt lat="48.07098" lon="5.39519">
        <ele>415</ele>
        <time>2023-07-05T10:28:00Z</time>
      </trkpt>
      <trkpt lat="48.07108" lon="5.3949">
        <ele>415</ele>
        <time>2023-07-05T10:28:18Z</time>
      </trkpt>
      <trkpt lat="48.07119" lon="5.39459">
        <ele>415</ele>
        <time>2023-07-05T10:28:38Z</time>
      </trkpt>
      <trkpt lat="48.07133" lon="5.39424">
        <ele>416</ele>
        <time>2023-07-05T10:29:00Z</time>
      </trkpt>
      <trkpt lat="48.07152" lon="5.3939">
        <ele>415</ele>
        <time>2023-07-05T10:29:24Z</time>
      </trkpt>
      <trkpt lat="48.07176" lon="5.39362">
        <ele>414</ele>
        <time>2023-07-05T10:29:48Z</time>
      </trkpt>
      <trkpt lat="48.072" lon="5.39347">
        <ele>414</ele>
        <time>2023-07-05T10:30:09Z</time>
      </trkpt>
      <trkpt lat="48.0721" lon="5.39338">
        <ele>413</ele>
        <time>2023-07-05T10:30:18Z</time>
      </trkpt>
      <trkpt lat="48.07227" lon="5.39309">
        <ele>413</ele>
        <time>2023-07-05T10:30:39Z</time>
      </trkpt>
      <trkpt lat="48.07242" lon="5.39278">
        <ele>413</ele>
        <time>2023-07-05T10:31:00Z</time>
      </trkpt>
      <trkpt lat="48.0726" lon="5.39243">
        <ele>413</ele>
        <time>2023-07-05T10:31:24Z</time>
      </trkpt>
      <trkpt lat="48.07273" lon="5.3922">
        <ele>413</ele>
        <time>2023-07-05T10:31:40Z</time>
      </trkpt>
      <trkpt lat="48.07296" lon="5.39194">
        <ele>412</ele>
        <time>2023-07-05T10:32:04Z</time>
      </trkpt>
      <trkpt lat="48.07319" lon="5.39173">
        <ele>413</ele>
        <time>2023-07-05T10:32:26Z</time>
      </trkpt>
      <trkpt lat="48.0734" lon="5.39164">
        <ele>413</ele>
        <time>2023-07-05T10:32:43Z</time>
      </trkpt>
      <trkpt lat="48.07367" lon="5.39157">
        <ele>412</ele>
        <time>2023-07-05T10:33:06Z</time>
      </trkpt>
      <trkpt lat="48.07394" lon="5.39156">
        <ele>412</ele>
        <time>2023-07-05T10:33:28Z</time>
      </trkpt>
      <trkpt lat="48.07425" lon="5.39153">
        <ele>412</ele>
        <time>2023-07-05T10:33:53Z</time>
      </trkpt>
      <trkpt lat="48.0745" lon="5.39137">
        <ele>411</ele>
        <time>2023-07-05T10:34:14Z</time>
      </trkpt>
      <trkpt lat="48.07469" lon="5.39111">
        <ele>411</ele>
        <time>2023-07-05T10:34:37Z</time>
      </trkpt>
      <trkpt lat="48.07487" lon="5.3908">
        <ele>411</ele>
        <time>2023-07-05T10:34:59Z</time>
      </trkpt>
      <trkpt lat="48.075" lon="5.39063">
        <ele>407</ele>
        <time>2023-07-05T10:35:14Z</time>
      </trkpt>
      <trkpt lat="48.0752" lon="5.3904">
        <ele>408</ele>
        <time>2023-07-05T10:35:35Z</time>
      </trkpt>
      <trkpt lat="48.07547" lon="5.39018">
        <ele>410</ele>
        <time>2023-07-05T10:35:58Z</time>
      </trkpt>
      <trkpt lat="48.07572" lon="5.39">
        <ele>408</ele>
        <time>2023-07-05T10:36:22Z</time>
      </trkpt>
      <trkpt lat="48.07596" lon="5.38983">
        <ele>407</ele>
        <time>2023-07-05T10:36:44Z</time>
      </trkpt>
      <trkpt lat="48.0762" lon="5.38964">
        <ele>408</ele>
        <time>2023-07-05T10:37:06Z</time>
      </trkpt>
      <trkpt lat="48.07642" lon="5.38948">
        <ele>406</ele>
        <time>2023-07-05T10:37:27Z</time>
      </trkpt>
      <trkpt lat="48.07661" lon="5.38933">
        <ele>405</ele>
        <time>2023-07-05T10:37:45Z</time>
      </trkpt>
      <trkpt lat="48.07678" lon="5.38919">
        <ele>404</ele>
        <time>2023-07-05T10:38:01Z</time>
      </trkpt>
      <trkpt lat="48.07701" lon="5.38902">
        <ele>404</ele>
        <time>2023-07-05T10:38:22Z</time>
      </trkpt>
      <trkpt lat="48.07718" lon="5.38889">
        <ele>403</ele>
        <time>2023-07-05T10:38:41Z</time>
      </trkpt>
      <trkpt lat="48.07734" lon="5.38879">
        <ele>402</ele>
        <time>2023-07-05T10:38:58Z</time>
      </trkpt>
      <trkpt lat="48.07733" lon="5.38877">
        <ele>402</ele>
        <time>2023-07-05T10:39:28Z</time>
      </trkpt>
      <trkpt lat="48.07736" lon="5.38876">
        <ele>402</ele>
        <time>2023-07-05T10:39:58Z</time>
      </trkpt>
      <trkpt lat="48.07736" lon="5.38875">
        <ele>402</ele>
        <time>2023-07-05T10:40:00Z</time>
      </trkpt>
      <trkpt lat="48.07754" lon="5.38863">
        <ele>401</ele>
        <time>2023-07-05T10:40:18Z</time>
      </trkpt>
      <trkpt lat="48.07774" lon="5.3884">
        <ele>400</ele>
        <time>2023-07-05T10:40:39Z</time>
      </trkpt>
      <trkpt lat="48.07797" lon="5.38819">
        <ele>401</ele>
        <time>2023-07-05T10:41:00Z</time>
      </trkpt>
      <trkpt lat="48.07822" lon="5.3881">
        <ele>401</ele>
        <time>2023-07-05T10:41:21Z</time>
      </trkpt>
      <trkpt lat="48.07834" lon="5.38811">
        <ele>401</ele>
        <time>2023-07-05T10:41:37Z</time>
      </trkpt>
      <trkpt lat="48.07866" lon="5.38818">
        <ele>400</ele>
        <time>2023-07-05T10:41:59Z</time>
      </trkpt>
      <trkpt lat="48.07886" lon="5.38821">
        <ele>400</ele>
        <time>2023-07-05T10:42:14Z</time>
      </trkpt>
      <trkpt lat="48.07914" lon="5.38821">
        <ele>397</ele>
        <time>2023-07-05T10:42:34Z</time>
      </trkpt>
      <trkpt lat="48.07918" lon="5.3882">
        <ele>397</ele>
        <time>2023-07-05T10:42:37Z</time>
      </trkpt>
      <trkpt lat="48.07938" lon="5.38806">
        <ele>395</ele>
        <time>2023-07-05T10:42:55Z</time>
      </trkpt>
      <trkpt lat="48.07938" lon="5.38806">
        <ele>394</ele>
        <time>2023-07-05T10:43:14Z</time>
      </trkpt>
      <trkpt lat="48.07937" lon="5.38805">
        <ele>394</ele>
        <time>2023-07-05T10:43:45Z</time>
      </trkpt>
      <trkpt lat="48.07939" lon="5.38804">
        <ele>395</ele>
        <time>2023-07-05T10:44:10Z</time>
      </trkpt>
      <trkpt lat="48.07947" lon="5.38793">
        <ele>392</ele>
        <time>2023-07-05T10:44:23Z</time>
      </trkpt>
      <trkpt lat="48.07964" lon="5.38775">
        <ele>391</ele>
        <time>2023-07-05T10:44:42Z</time>
      </trkpt>
      <trkpt lat="48.07964" lon="5.38767">
        <ele>390</ele>
        <time>2023-07-05T10:44:58Z</time>
      </trkpt>
      <trkpt lat="48.07961" lon="5.38759">
        <ele>389</ele>
        <time>2023-07-05T10:45:22Z</time>
      </trkpt>
      <trkpt lat="48.07969" lon="5.3874">
        <ele>388</ele>
        <time>2023-07-05T10:45:47Z</time>
      </trkpt>
      <trkpt lat="48.07976" lon="5.38728">
        <ele>387</ele>
        <time>2023-07-05T10:45:54Z</time>
      </trkpt>
      <trkpt lat="48.07979" lon="5.38721">
        <ele>385</ele>
        <time>2023-07-05T10:45:59Z</time>
      </trkpt>
      <trkpt lat="48.07985" lon="5.3871">
        <ele>383</ele>
        <time>2023-07-05T10:46:07Z</time>
      </trkpt>
      <trkpt lat="48.07996" lon="5.38688">
        <ele>381</ele>
        <time>2023-07-05T10:46:26Z</time>
      </trkpt>
      <trkpt lat="48.07999" lon="5.38685">
        <ele>380</ele>
        <time>2023-07-05T10:46:29Z</time>
      </trkpt>
      <trkpt lat="48.08022" lon="5.38666">
        <ele>378</ele>
        <time>2023-07-05T10:46:47Z</time>
      </trkpt>
      <trkpt lat="48.08044" lon="5.38647">
        <ele>376</ele>
        <time>2023-07-05T10:47:06Z</time>
      </trkpt>
      <trkpt lat="48.08049" lon="5.3864">
        <ele>376</ele>
        <time>2023-07-05T10:47:31Z</time>
      </trkpt>
      <trkpt lat="48.08068" lon="5.38624">
        <ele>372</ele>
        <time>2023-07-05T10:47:46Z</time>
      </trkpt>
      <trkpt lat="48.0809" lon="5.38602">
        <ele>372</ele>
        <time>2023-07-05T10:48:05Z</time>
      </trkpt>
      <trkpt lat="48.08107" lon="5.3858">
        <ele>369</ele>
        <time>2023-07-05T10:48:24Z</time>
      </trkpt>
      <trkpt lat="48.08127" lon="5.38565">
        <ele>367</ele>
        <time>2023-07-05T10:48:42Z</time>
      </trkpt>
      <trkpt lat="48.08149" lon="5.38547">
        <ele>367</ele>
        <time>2023-07-05T10:48:59Z</time>
      </trkpt>
      <trkpt lat="48.08172" lon="5.38536">
        <ele>366</ele>
        <time>2023-07-05T10:49:17Z</time>
      </trkpt>
      <trkpt lat="48.08191" lon="5.38527">
        <ele>364</ele>
        <time>2023-07-05T10:49:34Z</time>
      </trkpt>
      <trkpt lat="48.08213" lon="5.38508">
        <ele>362</ele>
        <time>2023-07-05T10:49:56Z</time>
      </trkpt>
      <trkpt lat="48.0823" lon="5.38478">
        <ele>359</ele>
        <time>2023-07-05T10:50:15Z</time>
      </trkpt>
      <trkpt lat="48.08244" lon="5.38463">
        <ele>358</ele>
        <time>2023-07-05T10:50:29Z</time>
      </trkpt>
      <trkpt lat="48.08263" lon="5.38435">
        <ele>357</ele>
        <time>2023-07-05T10:50:50Z</time>
      </trkpt>
      <trkpt lat="48.08284" lon="5.38406">
        <ele>355</ele>
        <time>2023-07-05T10:51:12Z</time>
      </trkpt>
      <trkpt lat="48.08302" lon="5.38383">
        <ele>354</ele>
        <time>2023-07-05T10:51:31Z</time>
      </trkpt>
      <trkpt lat="48.08321" lon="5.38354">
        <ele>351</ele>
        <time>2023-07-05T10:51:53Z</time>
      </trkpt>
      <trkpt lat="48.08334" lon="5.3832">
        <ele>349</ele>
        <time>2023-07-05T10:52:15Z</time>
      </trkpt>
      <trkpt lat="48.08338" lon="5.38285">
        <ele>348</ele>
        <time>2023-07-05T10:52:35Z</time>
      </trkpt>
      <trkpt lat="48.08336" lon="5.38254">
        <ele>348</ele>
        <time>2023-07-05T10:52:52Z</time>
      </trkpt>
      <trkpt lat="48.08337" lon="5.38212">
        <ele>350</ele>
        <time>2023-07-05T10:53:14Z</time>
      </trkpt>
      <trkpt lat="48.08335" lon="5.382">
        <ele>350</ele>
        <time>2023-07-05T10:53:21Z</time>
      </trkpt>
      <trkpt lat="48.08333" lon="5.38164">
        <ele>352</ele>
        <time>2023-07-05T10:53:42Z</time>
      </trkpt>
      <trkpt lat="48.08334" lon="5.3813">
        <ele>354</ele>
        <time>2023-07-05T10:54:01Z</time>
      </trkpt>
      <trkpt lat="48.08332" lon="5.38103">
        <ele>355</ele>
        <time>2023-07-05T10:54:17Z</time>
      </trkpt>
      <trkpt lat="48.08333" lon="5.38071">
        <ele>355</ele>
        <time>2023-07-05T10:54:36Z</time>
      </trkpt>
      <trkpt lat="48.08336" lon="5.38035">
        <ele>355</ele>
        <time>2023-07-05T10:54:57Z</time>
      </trkpt>
      <trkpt lat="48.08338" lon="5.38025">
        <ele>355</ele>
        <time>2023-07-05T10:55:12Z</time>
      </trkpt>
      <trkpt lat="48.08337" lon="5.38003">
        <ele>356</ele>
        <time>2023-07-05T10:55:32Z</time>
      </trkpt>
      <trkpt lat="48.08338" lon="5.37996">
        <ele>355</ele>
        <time>2023-07-05T10:56:02Z</time>
      </trkpt>
      <trkpt lat="48.08339" lon="5.37987">
        <ele>355</ele>
        <time>2023-07-05T10:56:21Z</time>
      </trkpt>
      <trkpt lat="48.08341" lon="5.37948">
        <ele>353</ele>
        <time>2023-07-05T10:56:43Z</time>
      </trkpt>
      <trkpt lat="48.08343" lon="5.3791">
        <ele>353</ele>
        <time>2023-07-05T10:57:03Z</time>
      </trkpt>
      <trkpt lat="48.0835" lon="5.37874">
        <ele>352</ele>
        <time>2023-07-05T10:57:22Z</time>
      </trkpt>
      <trkpt lat="48.08362" lon="5.37843">
        <ele>352</ele>
        <time>2023-07-05T10:57:42Z</time>
      </trkpt>
      <trkpt lat="48.08377" lon="5.37825">
        <ele>352</ele>
        <time>2023-07-05T10:57:59Z</time>
      </trkpt>
      <trkpt lat="48.0839" lon="5.378">
        <ele>352</ele>
        <time>2023-07-05T10:58:17Z</time>
      </trkpt>
      <trkpt lat="48.08405" lon="5.37783">
        <ele>353</ele>
        <time>2023-07-05T10:58:35Z</time>
      </trkpt>
      <trkpt lat="48.08418" lon="5.37771">
        <ele>355</ele>
        <time>2023-07-05T10:58:47Z</time>
      </trkpt>
      <trkpt lat="48.08429" lon="5.37759">
        <ele>357</ele>
        <time>2023-07-05T10:58:58Z</time>
      </trkpt>
      <trkpt lat="48.08444" lon="5.37749">
        <ele>358</ele>
        <time>2023-07-05T10:59:14Z</time>
      </trkpt>
      <trkpt lat="48.08454" lon="5.37743">
        <ele>358</ele>
        <time>2023-07-05T10:59:26Z</time>
      </trkpt>
      <trkpt lat="48.08471" lon="5.37745">
        <ele>359</ele>
        <time>2023-07-05T10:59:43Z</time>
      </trkpt>
      <trkpt lat="48.08487" lon="5.3775">
        <ele>358</ele>
        <time>2023-07-05T10:59:59Z</time>
      </trkpt>
      <trkpt lat="48.08492" lon="5.37751">
        <ele>358</ele>
        <time>2023-07-05T11:00:18Z</time>
      </trkpt>
      <trkpt lat="48.08499" lon="5.37748">
        <ele>358</ele>
        <time>2023-07-05T11:00:39Z</time>
      </trkpt>
      <trkpt lat="48.08515" lon="5.37734">
        <ele>357</ele>
        <time>2023-07-05T11:00:56Z</time>
      </trkpt>
      <trkpt lat="48.08539" lon="5.37721">
        <ele>356</ele>
        <time>2023-07-05T11:01:13Z</time>
      </trkpt>
      <trkpt lat="48.08563" lon="5.37709">
        <ele>356</ele>
        <time>2023-07-05T11:01:30Z</time>
      </trkpt>
      <trkpt lat="48.08582" lon="5.377">
        <ele>356</ele>
        <time>2023-07-05T11:01:47Z</time>
      </trkpt>
      <trkpt lat="48.08593" lon="5.3769">
        <ele>355</ele>
        <time>2023-07-05T11:01:59Z</time>
      </trkpt>
      <trkpt lat="48.08621" lon="5.37674">
        <ele>354</ele>
        <time>2023-07-05T11:02:21Z</time>
      </trkpt>
      <trkpt lat="48.08643" lon="5.37665">
        <ele>354</ele>
        <time>2023-07-05T11:02:41Z</time>
      </trkpt>
      <trkpt lat="48.08663" lon="5.37655">
        <ele>354</ele>
        <time>2023-07-05T11:02:59Z</time>
      </trkpt>
      <trkpt lat="48.08686" lon="5.37649">
        <ele>355</ele>
        <time>2023-07-05T11:03:19Z</time>
      </trkpt>
      <trkpt lat="48.08709" lon="5.37642">
        <ele>356</ele>
        <time>2023-07-05T11:03:37Z</time>
      </trkpt>
      <trkpt lat="48.08734" lon="5.37646">
        <ele>354</ele>
        <time>2023-07-05T11:03:59Z</time>
      </trkpt>
      <trkpt lat="48.08744" lon="5.37649">
        <ele>353</ele>
        <time>2023-07-05T11:04:08Z</time>
      </trkpt>
      <trkpt lat="48.08766" lon="5.37653">
        <ele>354</ele>
        <time>2023-07-05T11:04:26Z</time>
      </trkpt>
      <trkpt lat="48.08787" lon="5.37656">
        <ele>353</ele>
        <time>2023-07-05T11:04:45Z</time>
      </trkpt>
      <trkpt lat="48.08795" lon="5.37655">
        <ele>353</ele>
        <time>2023-07-05T11:04:53Z</time>
      </trkpt>
      <trkpt lat="48.08814" lon="5.37653">
        <ele>352</ele>
        <time>2023-07-05T11:05:09Z</time>
      </trkpt>
      <trkpt lat="48.08838" lon="5.3765">
        <ele>352</ele>
        <time>2023-07-05T11:05:30Z</time>
      </trkpt>
      <trkpt lat="48.08859" lon="5.37648">
        <ele>353</ele>
        <time>2023-07-05T11:05:48Z</time>
      </trkpt>
      <trkpt lat="48.08882" lon="5.37646">
        <ele>353</ele>
        <time>2023-07-05T11:06:09Z</time>
      </trkpt>
      <trkpt lat="48.08906" lon="5.37635">
        <ele>353</ele>
        <time>2023-07-05T11:06:31Z</time>
      </trkpt>
      <trkpt lat="48.08924" lon="5.37623">
        <ele>352</ele>
        <time>2023-07-05T11:06:49Z</time>
      </trkpt>
      <trkpt lat="48.08946" lon="5.37607">
        <ele>351</ele>
        <time>2023-07-05T11:07:09Z</time>
      </trkpt>
      <trkpt lat="48.08967" lon="5.37583">
        <ele>351</ele>
        <time>2023-07-05T11:07:28Z</time>
      </trkpt>
      <trkpt lat="48.08969" lon="5.37579">
        <ele>351</ele>
        <time>2023-07-05T11:07:31Z</time>
      </trkpt>
      <trkpt lat="48.08985" lon="5.37552">
        <ele>351</ele>
        <time>2023-07-05T11:07:51Z</time>
      </trkpt>
      <trkpt lat="48.08992" lon="5.37524">
        <ele>351</ele>
        <time>2023-07-05T11:08:09Z</time>
      </trkpt>
      <trkpt lat="48.08995" lon="5.37483">
        <ele>349</ele>
        <time>2023-07-05T11:08:32Z</time>
      </trkpt>
      <trkpt lat="48.08993" lon="5.37449">
        <ele>349</ele>
        <time>2023-07-05T11:08:52Z</time>
      </trkpt>
      <trkpt lat="48.08988" lon="5.37439">
        <ele>351</ele>
        <time>2023-07-05T11:09:07Z</time>
      </trkpt>
      <trkpt lat="48.08985" lon="5.37421">
        <ele>351</ele>
        <time>2023-07-05T11:09:26Z</time>
      </trkpt>
      <trkpt lat="48.08981" lon="5.3741">
        <ele>350</ele>
        <time>2023-07-05T11:09:34Z</time>
      </trkpt>
      <trkpt lat="48.08983" lon="5.3737">
        <ele>347</ele>
        <time>2023-07-05T11:09:55Z</time>
      </trkpt>
      <trkpt lat="48.08984" lon="5.3736">
        <ele>346</ele>
        <time>2023-07-05T11:10:00Z</time>
      </trkpt>
      <trkpt lat="48.08988" lon="5.37357">
        <ele>347</ele>
        <time>2023-07-05T11:10:04Z</time>
      </trkpt>
      <trkpt lat="48.09009" lon="5.37365">
        <ele>345</ele>
        <time>2023-07-05T11:10:22Z</time>
      </trkpt>
      <trkpt lat="48.09027" lon="5.37378">
        <ele>344</ele>
        <time>2023-07-05T11:10:39Z</time>
      </trkpt>
      <trkpt lat="48.0905" lon="5.37394">
        <ele>343</ele>
        <time>2023-07-05T11:10:59Z</time>
      </trkpt>
      <trkpt lat="48.09073" lon="5.37411">
        <ele>344</ele>
        <time>2023-07-05T11:11:21Z</time>
      </trkpt>
      <trkpt lat="48.09095" lon="5.37427">
        <ele>343</ele>
        <time>2023-07-05T11:11:41Z</time>
      </trkpt>
      <trkpt lat="48.09113" lon="5.37437">
        <ele>344</ele>
        <time>2023-07-05T11:11:58Z</time>
      </trkpt>
      <trkpt lat="48.09113" lon="5.37445">
        <ele>345</ele>
        <time>2023-07-05T11:12:14Z</time>
      </trkpt>
      <trkpt lat="48.09116" lon="5.37443">
        <ele>343</ele>
        <time>2023-07-05T11:12:21Z</time>
      </trkpt>
      <trkpt lat="48.09142" lon="5.37444">
        <ele>344</ele>
        <time>2023-07-05T11:12:42Z</time>
      </trkpt>
      <trkpt lat="48.0915" lon="5.37443">
        <ele>344</ele>
        <time>2023-07-05T11:12:58Z</time>
      </trkpt>
      <trkpt lat="48.09168" lon="5.37432">
        <ele>344</ele>
        <time>2023-07-05T11:13:13Z</time>
      </trkpt>
      <trkpt lat="48.0919" lon="5.37414">
        <ele>346</ele>
        <time>2023-07-05T11:13:34Z</time>
      </trkpt>
      <trkpt lat="48.09212" lon="5.374">
        <ele>347</ele>
        <time>2023-07-05T11:13:55Z</time>
      </trkpt>
      <trkpt lat="48.09229" lon="5.37389">
        <ele>349</ele>
        <time>2023-07-05T11:14:12Z</time>
      </trkpt>
      <trkpt lat="48.09254" lon="5.37374">
        <ele>349</ele>
        <time>2023-07-05T11:14:32Z</time>
      </trkpt>
      <trkpt lat="48.09271" lon="5.37368">
        <ele>349</ele>
        <time>2023-07-05T11:14:51Z</time>
      </trkpt>
      <trkpt lat="48.09295" lon="5.37364">
        <ele>350</ele>
        <time>2023-07-05T11:15:11Z</time>
      </trkpt>
      <trkpt lat="48.09323" lon="5.37359">
        <ele>350</ele>
        <time>2023-07-05T11:15:35Z</time>
      </trkpt>
      <trkpt lat="48.09349" lon="5.37354">
        <ele>350</ele>
        <time>2023-07-05T11:15:55Z</time>
      </trkpt>
      <trkpt lat="48.09376" lon="5.37356">
        <ele>351</ele>
        <time>2023-07-05T11:16:18Z</time>
      </trkpt>
      <trkpt lat="48.09401" lon="5.37362">
        <ele>352</ele>
        <time>2023-07-05T11:16:39Z</time>
      </trkpt>
      <trkpt lat="48.09425" lon="5.37368">
        <ele>352</ele>
        <time>2023-07-05T11:16:59Z</time>
      </trkpt>
      <trkpt lat="48.09448" lon="5.37377">
        <ele>351</ele>
        <time>2023-07-05T11:17:19Z</time>
      </trkpt>
      <trkpt lat="48.09465" lon="5.37391">
        <ele>352</ele>
        <time>2023-07-05T11:17:35Z</time>
      </trkpt>
      <trkpt lat="48.09485" lon="5.37412">
        <ele>351</ele>
        <time>2023-07-05T11:17:55Z</time>
      </trkpt>
      <trkpt lat="48.09507" lon="5.37429">
        <ele>352</ele>
        <time>2023-07-05T11:18:16Z</time>
      </trkpt>
      <trkpt lat="48.09532" lon="5.37439">
        <ele>352</ele>
        <time>2023-07-05T11:18:38Z</time>
      </trkpt>
      <trkpt lat="48.09563" lon="5.37442">
        <ele>353</ele>
        <time>2023-07-05T11:19:04Z</time>
      </trkpt>
      <trkpt lat="48.09582" lon="5.37446">
        <ele>352</ele>
        <time>2023-07-05T11:19:22Z</time>
      </trkpt>
      <trkpt lat="48.09596" lon="5.37454">
        <ele>351</ele>
        <time>2023-07-05T11:19:42Z</time>
      </trkpt>
      <trkpt lat="48.09622" lon="5.37472">
        <ele>351</ele>
        <time>2023-07-05T11:20:01Z</time>
      </trkpt>
      <trkpt lat="48.09655" lon="5.37477">
        <ele>352</ele>
        <time>2023-07-05T11:20:21Z</time>
      </trkpt>
      <trkpt lat="48.09671" lon="5.37477">
        <ele>352</ele>
        <time>2023-07-05T11:20:39Z</time>
      </trkpt>
      <trkpt lat="48.09674" lon="5.37477">
        <ele>352</ele>
        <time>2023-07-05T11:20:41Z</time>
      </trkpt>
      <trkpt lat="48.0968" lon="5.37477">
        <ele>352</ele>
        <time>2023-07-05T11:20:46Z</time>
      </trkpt>
      <trkpt lat="48.09703" lon="5.37479">
        <ele>350</ele>
        <time>2023-07-05T11:21:04Z</time>
      </trkpt>
      <trkpt lat="48.09725" lon="5.37479">
        <ele>351</ele>
        <time>2023-07-05T11:21:24Z</time>
      </trkpt>
      <trkpt lat="48.09746" lon="5.37483">
        <ele>351</ele>
        <time>2023-07-05T11:21:42Z</time>
      </trkpt>
      <trkpt lat="48.09772" lon="5.37486">
        <ele>352</ele>
        <time>2023-07-05T11:22:04Z</time>
      </trkpt>
      <trkpt lat="48.09794" lon="5.37493">
        <ele>353</ele>
        <time>2023-07-05T11:22:23Z</time>
      </trkpt>
      <trkpt lat="48.09811" lon="5.37507">
        <ele>354</ele>
        <time>2023-07-05T11:22:42Z</time>
      </trkpt>
      <trkpt lat="48.09834" lon="5.37526">
        <ele>356</ele>
        <time>2023-07-05T11:23:03Z</time>
      </trkpt>
      <trkpt lat="48.09854" lon="5.37541">
        <ele>357</ele>
        <time>2023-07-05T11:23:23Z</time>
      </trkpt>
      <trkpt lat="48.09875" lon="5.37558">
        <ele>359</ele>
        <time>2023-07-05T11:23:42Z</time>
      </trkpt>
      <trkpt lat="48.09884" lon="5.37565">
        <ele>360</ele>
        <time>2023-07-05T11:23:50Z</time>
      </trkpt>
      <trkpt lat="48.09891" lon="5.37591">
        <ele>361</ele>
        <time>2023-07-05T11:24:10Z</time>
      </trkpt>
      <trkpt lat="48.09885" lon="5.37609">
        <ele>363</ele>
        <time>2023-07-05T11:24:24Z</time>
      </trkpt>
      <trkpt lat="48.09882" lon="5.37621">
        <ele>363</ele>
        <time>2023-07-05T11:24:33Z</time>
      </trkpt>
      <trkpt lat="48.09879" lon="5.37649">
        <ele>364</ele>
        <time>2023-07-05T11:24:51Z</time>
      </trkpt>
      <trkpt lat="48.09873" lon="5.37675">
        <ele>365</ele>
        <time>2023-07-05T11:25:09Z</time>
      </trkpt>
      <trkpt lat="48.09868" lon="5.37698">
        <ele>367</ele>
        <time>2023-07-05T11:25:26Z</time>
      </trkpt>
      <trkpt lat="48.09866" lon="5.37722">
        <ele>368</ele>
        <time>2023-07-05T11:25:43Z</time>
      </trkpt>
      <trkpt lat="48.09864" lon="5.37748">
        <ele>370</ele>
        <time>2023-07-05T11:26:00Z</time>
      </trkpt>
      <trkpt lat="48.09865" lon="5.37759">
        <ele>370</ele>
        <time>2023-07-05T11:26:07Z</time>
      </trkpt>
      <trkpt lat="48.09866" lon="5.37789">
        <ele>372</ele>
        <time>2023-07-05T11:26:26Z</time>
      </trkpt>
      <trkpt lat="48.09865" lon="5.37812">
        <ele>373</ele>
        <time>2023-07-05T11:26:39Z</time>
      </trkpt>
      <trkpt lat="48.09863" lon="5.37817">
        <ele>374</ele>
        <time>2023-07-05T11:26:43Z</time>
      </trkpt>
      <trkpt lat="48.09865" lon="5.37839">
        <ele>374</ele>
        <time>2023-07-05T11:26:55Z</time>
      </trkpt>
      <trkpt lat="48.09868" lon="5.37847">
        <ele>375</ele>
        <time>2023-07-05T11:26:59Z</time>
      </trkpt>
      <trkpt lat="48.0987" lon="5.37851">
        <ele>375</ele>
        <time>2023-07-05T11:27:02Z</time>
      </trkpt>
      <trkpt lat="48.09883" lon="5.37864">
        <ele>376</ele>
        <time>2023-07-05T11:27:19Z</time>
      </trkpt>
      <trkpt lat="48.09898" lon="5.37875">
        <ele>378</ele>
        <time>2023-07-05T11:27:36Z</time>
      </trkpt>
      <trkpt lat="48.0992" lon="5.37889">
        <ele>378</ele>
        <time>2023-07-05T11:27:55Z</time>
      </trkpt>
      <trkpt lat="48.09936" lon="5.379">
        <ele>380</ele>
        <time>2023-07-05T11:28:15Z</time>
      </trkpt>
      <trkpt lat="48.09952" lon="5.37911">
        <ele>382</ele>
        <time>2023-07-05T11:28:31Z</time>
      </trkpt>
      <trkpt lat="48.09967" lon="5.3792">
        <ele>383</ele>
        <time>2023-07-05T11:28:48Z</time>
      </trkpt>
      <trkpt lat="48.09983" lon="5.3793">
        <ele>384</ele>
        <time>2023-07-05T11:29:04Z</time>
      </trkpt>
      <trkpt lat="48.10001" lon="5.37941">
        <ele>385</ele>
        <time>2023-07-05T11:29:21Z</time>
      </trkpt>
      <trkpt lat="48.10018" lon="5.37954">
        <ele>386</ele>
        <time>2023-07-05T11:29:38Z</time>
      </trkpt>
      <trkpt lat="48.10035" lon="5.37964">
        <ele>388</ele>
        <time>2023-07-05T11:29:56Z</time>
      </trkpt>
      <trkpt lat="48.1004" lon="5.37966">
        <ele>388</ele>
        <time>2023-07-05T11:30:11Z</time>
      </trkpt>
      <trkpt lat="48.10053" lon="5.37975">
        <ele>388</ele>
        <time>2023-07-05T11:30:26Z</time>
      </trkpt>
      <trkpt lat="48.10068" lon="5.37986">
        <ele>389</ele>
        <time>2023-07-05T11:30:41Z</time>
      </trkpt>
      <trkpt lat="48.10081" lon="5.37994">
        <ele>390</ele>
        <time>2023-07-05T11:30:57Z</time>
      </trkpt>
      <trkpt lat="48.10098" lon="5.38003">
        <ele>390</ele>
        <time>2023-07-05T11:31:13Z</time>
      </trkpt>
      <trkpt lat="48.10115" lon="5.38011">
        <ele>391</ele>
        <time>2023-07-05T11:31:30Z</time>
      </trkpt>
      <trkpt lat="48.10135" lon="5.38017">
        <ele>391</ele>
        <time>2023-07-05T11:31:48Z</time>
      </trkpt>
      <trkpt lat="48.10155" lon="5.38022">
        <ele>391</ele>
        <time>2023-07-05T11:32:03Z</time>
      </trkpt>
      <trkpt lat="48.10176" lon="5.38027">
        <ele>391</ele>
        <time>2023-07-05T11:32:22Z</time>
      </trkpt>
      <trkpt lat="48.10195" lon="5.38024">
        <ele>391</ele>
        <time>2023-07-05T11:32:41Z</time>
      </trkpt>
      <trkpt lat="48.10216" lon="5.3803">
        <ele>390</ele>
        <time>2023-07-05T11:32:58Z</time>
      </trkpt>
      <trkpt lat="48.10241" lon="5.38036">
        <ele>389</ele>
        <time>2023-07-05T11:33:17Z</time>
      </trkpt>
      <trkpt lat="48.10261" lon="5.38043">
        <ele>388</ele>
        <time>2023-07-05T11:33:36Z</time>
      </trkpt>
      <trkpt lat="48.10282" lon="5.38055">
        <ele>387</ele>
        <time>2023-07-05T11:33:54Z</time>
      </trkpt>
      <trkpt lat="48.10302" lon="5.38064">
        <ele>386</ele>
        <time>2023-07-05T11:34:13Z</time>
      </trkpt>
      <trkpt lat="48.10307" lon="5.38067">
        <ele>386</ele>
        <time>2023-07-05T11:34:17Z</time>
      </trkpt>
      <trkpt lat="48.10328" lon="5.38081">
        <ele>384</ele>
        <time>2023-07-05T11:34:34Z</time>
      </trkpt>
      <trkpt lat="48.1035" lon="5.38093">
        <ele>383</ele>
        <time>2023-07-05T11:34:52Z</time>
      </trkpt>
      <trkpt lat="48.10374" lon="5.38103">
        <ele>382</ele>
        <time>2023-07-05T11:35:12Z</time>
      </trkpt>
      <trkpt lat="48.10394" lon="5.38112">
        <ele>380</ele>
        <time>2023-07-05T11:35:31Z</time>
      </trkpt>
      <trkpt lat="48.1042" lon="5.38129">
        <ele>380</ele>
        <time>2023-07-05T11:35:50Z</time>
      </trkpt>
      <trkpt lat="48.10435" lon="5.38147">
        <ele>378</ele>
        <time>2023-07-05T11:36:07Z</time>
      </trkpt>
      <trkpt lat="48.10434" lon="5.38171">
        <ele>377</ele>
        <time>2023-07-05T11:36:24Z</time>
      </trkpt>
      <trkpt lat="48.1043" lon="5.38193">
        <ele>376</ele>
        <time>2023-07-05T11:36:39Z</time>
      </trkpt>
      <trkpt lat="48.1042" lon="5.3821">
        <ele>376</ele>
        <time>2023-07-05T11:36:55Z</time>
      </trkpt>
      <trkpt lat="48.10419" lon="5.38211">
        <ele>375</ele>
        <time>2023-07-05T11:36:56Z</time>
      </trkpt>
      <trkpt lat="48.10406" lon="5.38234">
        <ele>374</ele>
        <time>2023-07-05T11:37:14Z</time>
      </trkpt>
      <trkpt lat="48.10394" lon="5.38261">
        <ele>373</ele>
        <time>2023-07-05T11:37:31Z</time>
      </trkpt>
      <trkpt lat="48.10388" lon="5.38285">
        <ele>372</ele>
        <time>2023-07-05T11:37:45Z</time>
      </trkpt>
      <trkpt lat="48.1038" lon="5.38309">
        <ele>369</ele>
        <time>2023-07-05T11:38:01Z</time>
      </trkpt>
      <trkpt lat="48.10375" lon="5.38333">
        <ele>368</ele>
        <time>2023-07-05T11:38:17Z</time>
      </trkpt>
      <trkpt lat="48.10365" lon="5.38361">
        <ele>365</ele>
        <time>2023-07-05T11:38:34Z</time>
      </trkpt>
      <trkpt lat="48.10362" lon="5.38393">
        <ele>363</ele>
        <time>2023-07-05T11:38:52Z</time>
      </trkpt>
      <trkpt lat="48.10359" lon="5.38424">
        <ele>362</ele>
        <time>2023-07-05T11:39:09Z</time>
      </trkpt>
      <trkpt lat="48.10356" lon="5.38452">
        <ele>359</ele>
        <time>2023-07-05T11:39:25Z</time>
      </trkpt>
      <trkpt lat="48.10351" lon="5.38479">
        <ele>357</ele>
        <time>2023-07-05T11:39:40Z</time>
      </trkpt>
      <trkpt lat="48.10348" lon="5.38501">
        <ele>356</ele>
        <time>2023-07-05T11:39:55Z</time>
      </trkpt>
      <trkpt lat="48.10344" lon="5.3853">
        <ele>355</ele>
        <time>2023-07-05T11:40:12Z</time>
      </trkpt>
      <trkpt lat="48.10341" lon="5.38557">
        <ele>352</ele>
        <time>2023-07-05T11:40:30Z</time>
      </trkpt>
      <trkpt lat="48.10343" lon="5.38587">
        <ele>351</ele>
        <time>2023-07-05T11:40:48Z</time>
      </trkpt>
      <trkpt lat="48.10344" lon="5.38613">
        <ele>350</ele>
        <time>2023-07-05T11:41:06Z</time>
      </trkpt>
      <trkpt lat="48.1035" lon="5.38642">
        <ele>349</ele>
        <time>2023-07-05T11:41:24Z</time>
      </trkpt>
      <trkpt lat="48.10354" lon="5.38656">
        <ele>348</ele>
        <time>2023-07-05T11:41:40Z</time>
      </trkpt>
      <trkpt lat="48.10359" lon="5.38681">
        <ele>348</ele>
        <time>2023-07-05T11:41:55Z</time>
      </trkpt>
      <trkpt lat="48.10359" lon="5.38717">
        <ele>349</ele>
        <time>2023-07-05T11:42:14Z</time>
      </trkpt>
      <trkpt lat="48.10357" lon="5.38724">
        <ele>348</ele>
        <time>2023-07-05T11:42:18Z</time>
      </trkpt>
      <trkpt lat="48.10347" lon="5.38753">
        <ele>349</ele>
        <time>2023-07-05T11:42:39Z</time>
      </trkpt>
      <trkpt lat="48.10342" lon="5.38762">
        <ele>349</ele>
        <time>2023-07-05T11:42:46Z</time>
      </trkpt>
      <trkpt lat="48.1033" lon="5.3878">
        <ele>349</ele>
        <time>2023-07-05T11:43:03Z</time>
      </trkpt>
      <trkpt lat="48.10326" lon="5.38791">
        <ele>349</ele>
        <time>2023-07-05T11:43:17Z</time>
      </trkpt>
      <trkpt lat="48.10324" lon="5.38802">
        <ele>349</ele>
        <time>2023-07-05T11:43:22Z</time>
      </trkpt>
      <trkpt lat="48.10315" lon="5.38823">
        <ele>349</ele>
        <time>2023-07-05T11:43:38Z</time>
      </trkpt>
      <trkpt lat="48.10313" lon="5.38837">
        <ele>350</ele>
        <time>2023-07-05T11:43:55Z</time>
      </trkpt>
      <trkpt lat="48.10318" lon="5.38849">
        <ele>350</ele>
        <time>2023-07-05T11:44:12Z</time>
      </trkpt>
      <trkpt lat="48.10318" lon="5.38884">
        <ele>351</ele>
        <time>2023-07-05T11:44:33Z</time>
      </trkpt>
      <trkpt lat="48.10314" lon="5.3891">
        <ele>352</ele>
        <time>2023-07-05T11:44:52Z</time>
      </trkpt>
      <trkpt lat="48.10307" lon="5.38926">
        <ele>353</ele>
        <time>2023-07-05T11:45:08Z</time>
      </trkpt>
      <trkpt lat="48.10307" lon="5.38929">
        <ele>353</ele>
        <time>2023-07-05T11:45:25Z</time>
      </trkpt>
      <trkpt lat="48.10308" lon="5.38926">
        <ele>352</ele>
        <time>2023-07-05T11:45:38Z</time>
      </trkpt>
      <trkpt lat="48.10313" lon="5.38948">
        <ele>352</ele>
        <time>2023-07-05T11:45:55Z</time>
      </trkpt>
      <trkpt lat="48.1031" lon="5.38943">
        <ele>352</ele>
        <time>2023-07-05T11:46:20Z</time>
      </trkpt>
      <trkpt lat="48.10318" lon="5.3895">
        <ele>352</ele>
        <time>2023-07-05T11:46:25Z</time>
      </trkpt>
      <trkpt lat="48.10322" lon="5.38986">
        <ele>354</ele>
        <time>2023-07-05T11:46:44Z</time>
      </trkpt>
      <trkpt lat="48.10322" lon="5.3899">
        <ele>354</ele>
        <time>2023-07-05T11:46:47Z</time>
      </trkpt>
      <trkpt lat="48.10322" lon="5.38998">
        <ele>354</ele>
        <time>2023-07-05T11:47:05Z</time>
      </trkpt>
      <trkpt lat="48.10326" lon="5.39013">
        <ele>355</ele>
        <time>2023-07-05T11:47:23Z</time>
      </trkpt>
      <trkpt lat="48.10329" lon="5.39027">
        <ele>355</ele>
        <time>2023-07-05T11:47:38Z</time>
      </trkpt>
      <trkpt lat="48.10338" lon="5.39058">
        <ele>357</ele>
        <time>2023-07-05T11:47:57Z</time>
      </trkpt>
      <trkpt lat="48.10349" lon="5.39084">
        <ele>358</ele>
        <time>2023-07-05T11:48:16Z</time>
      </trkpt>
      <trkpt lat="48.1035" lon="5.39087">
        <ele>358</ele>
        <time>2023-07-05T11:48:19Z</time>
      </trkpt>
      <trkpt lat="48.10356" lon="5.39106">
        <ele>359</ele>
        <time>2023-07-05T11:48:33Z</time>
      </trkpt>
      <trkpt lat="48.10363" lon="5.39125">
        <ele>360</ele>
        <time>2023-07-05T11:48:47Z</time>
      </trkpt>
      <trkpt lat="48.10366" lon="5.39157">
        <ele>360</ele>
        <time>2023-07-05T11:49:04Z</time>
      </trkpt>
      <trkpt lat="48.10364" lon="5.39165">
        <ele>360</ele>
        <time>2023-07-05T11:49:08Z</time>
      </trkpt>
      <trkpt lat="48.10355" lon="5.3919">
        <ele>360</ele>
        <time>2023-07-05T11:49:26Z</time>
      </trkpt>
      <trkpt lat="48.10354" lon="5.39201">
        <ele>360</ele>
        <time>2023-07-05T11:49:33Z</time>
      </trkpt>
      <trkpt lat="48.10349" lon="5.3922">
        <ele>361</ele>
        <time>2023-07-05T11:49:45Z</time>
      </trkpt>
      <trkpt lat="48.10337" lon="5.39248">
        <ele>362</ele>
        <time>2023-07-05T11:50:04Z</time>
      </trkpt>
      <trkpt lat="48.1033" lon="5.3927">
        <ele>363</ele>
        <time>2023-07-05T11:50:19Z</time>
      </trkpt>
      <trkpt lat="48.10329" lon="5.39275">
        <ele>362</ele>
        <time>2023-07-05T11:50:22Z</time>
      </trkpt>
      <trkpt lat="48.10322" lon="5.39299">
        <ele>363</ele>
        <time>2023-07-05T11:50:38Z</time>
      </trkpt>
      <trkpt lat="48.10319" lon="5.39313">
        <ele>364</ele>
        <time>2023-07-05T11:50:47Z</time>
      </trkpt>
      <trkpt lat="48.10318" lon="5.39327">
        <ele>364</ele>
        <time>2023-07-05T11:50:56Z</time>
      </trkpt>
      <trkpt lat="48.10311" lon="5.39355">
        <ele>364</ele>
        <time>2023-07-05T11:51:15Z</time>
      </trkpt>
      <trkpt lat="48.10308" lon="5.39376">
        <ele>364</ele>
        <time>2023-07-05T11:51:28Z</time>
      </trkpt>
      <trkpt lat="48.10299" lon="5.39416">
        <ele>362</ele>
        <time>2023-07-05T11:51:52Z</time>
      </trkpt>
      <trkpt lat="48.10292" lon="5.3945">
        <ele>361</ele>
        <time>2023-07-05T11:52:13Z</time>
      </trkpt>
      <trkpt lat="48.1029" lon="5.39468">
        <ele>361</ele>
        <time>2023-07-05T11:52:24Z</time>
      </trkpt>
      <trkpt lat="48.10289" lon="5.39475">
        <ele>361</ele>
        <time>2023-07-05T11:52:28Z</time>
      </trkpt>
      <trkpt lat="48.10289" lon="5.39483">
        <ele>361</ele>
        <time>2023-07-05T11:52:32Z</time>
      </trkpt>
      <trkpt lat="48.10282" lon="5.39497">
        <ele>361</ele>
        <time>2023-07-05T11:52:41Z</time>
      </trkpt>
      <trkpt lat="48.10281" lon="5.39531">
        <ele>360</ele>
        <time>2023-07-05T11:53:01Z</time>
      </trkpt>
      <trkpt lat="48.10281" lon="5.39566">
        <ele>360</ele>
        <time>2023-07-05T11:53:21Z</time>
      </trkpt>
      <trkpt lat="48.10283" lon="5.39592">
        <ele>360</ele>
        <time>2023-07-05T11:53:38Z</time>
      </trkpt>
      <trkpt lat="48.1029" lon="5.39618">
        <ele>361</ele>
        <time>2023-07-05T11:53:54Z</time>
      </trkpt>
      <trkpt lat="48.1029" lon="5.39622">
        <ele>361</ele>
        <time>2023-07-05T11:53:57Z</time>
      </trkpt>
      <trkpt lat="48.10292" lon="5.39636">
        <ele>362</ele>
        <time>2023-07-05T11:54:06Z</time>
      </trkpt>
      <trkpt lat="48.10298" lon="5.39655">
        <ele>364</ele>
        <time>2023-07-05T11:54:21Z</time>
      </trkpt>
      <trkpt lat="48.10302" lon="5.39678">
        <ele>364</ele>
        <time>2023-07-05T11:54:39Z</time>
      </trkpt>
      <trkpt lat="48.10311" lon="5.39706">
        <ele>365</ele>
        <time>2023-07-05T11:54:57Z</time>
      </trkpt>
      <trkpt lat="48.10317" lon="5.39733">
        <ele>366</ele>
        <time>2023-07-05T11:55:16Z</time>
      </trkpt>
      <trkpt lat="48.10324" lon="5.39759">
        <ele>366</ele>
        <time>2023-07-05T11:55:32Z</time>
      </trkpt>
      <trkpt lat="48.10331" lon="5.39789">
        <ele>368</ele>
        <time>2023-07-05T11:55:52Z</time>
      </trkpt>
      <trkpt lat="48.10337" lon="5.39818">
        <ele>369</ele>
        <time>2023-07-05T11:56:10Z</time>
      </trkpt>
      <trkpt lat="48.10343" lon="5.39844">
        <ele>370</ele>
        <time>2023-07-05T11:56:28Z</time>
      </trkpt>
      <trkpt lat="48.10351" lon="5.39872">
        <ele>372</ele>
        <time>2023-07-05T11:56:48Z</time>
      </trkpt>
      <trkpt lat="48.10351" lon="5.39904">
        <ele>375</ele>
        <time>2023-07-05T11:57:06Z</time>
      </trkpt>
      <trkpt lat="48.10356" lon="5.39928">
        <ele>376</ele>
        <time>2023-07-05T11:57:25Z</time>
      </trkpt>
      <trkpt lat="48.1036" lon="5.39949">
        <ele>377</ele>
        <time>2023-07-05T11:57:43Z</time>
      </trkpt>
      <trkpt lat="48.10361" lon="5.39976">
        <ele>378</ele>
        <time>2023-07-05T11:57:59Z</time>
      </trkpt>
      <trkpt lat="48.10363" lon="5.40006">
        <ele>380</ele>
        <time>2023-07-05T11:58:19Z</time>
      </trkpt>
      <trkpt lat="48.10371" lon="5.40035">
        <ele>382</ele>
        <time>2023-07-05T11:58:42Z</time>
      </trkpt>
      <trkpt lat="48.10386" lon="5.40066">
        <ele>385</ele>
        <time>2023-07-05T11:59:06Z</time>
      </trkpt>
      <trkpt lat="48.10396" lon="5.40085">
        <ele>388</ele>
        <time>2023-07-05T11:59:23Z</time>
      </trkpt>
      <trkpt lat="48.1041" lon="5.40105">
        <ele>389</ele>
        <time>2023-07-05T11:59:43Z</time>
      </trkpt>
      <trkpt lat="48.10416" lon="5.40106">
        <ele>390</ele>
        <time>2023-07-05T12:00:02Z</time>
      </trkpt>
      <trkpt lat="48.10426" lon="5.40114">
        <ele>391</ele>
        <time>2023-07-05T12:00:39Z</time>
      </trkpt>
      <trkpt lat="48.10429" lon="5.40134">
        <ele>392</ele>
        <time>2023-07-05T12:00:55Z</time>
      </trkpt>
      <trkpt lat="48.1045" lon="5.40159">
        <ele>394</ele>
        <time>2023-07-05T12:01:19Z</time>
      </trkpt>
      <trkpt lat="48.10464" lon="5.40181">
        <ele>395</ele>
        <time>2023-07-05T12:01:37Z</time>
      </trkpt>
      <trkpt lat="48.1048" lon="5.4021">
        <ele>397</ele>
        <time>2023-07-05T12:01:59Z</time>
      </trkpt>
      <trkpt lat="48.10485" lon="5.40226">
        <ele>398</ele>
        <time>2023-07-05T12:02:19Z</time>
      </trkpt>
      <trkpt lat="48.10489" lon="5.4024">
        <ele>398</ele>
        <time>2023-07-05T12:02:41Z</time>
      </trkpt>
      <trkpt lat="48.10498" lon="5.40279">
        <ele>398</ele>
        <time>2023-07-05T12:03:05Z</time>
      </trkpt>
      <trkpt lat="48.10508" lon="5.40316">
        <ele>399</ele>
        <time>2023-07-05T12:03:28Z</time>
      </trkpt>
      <trkpt lat="48.10515" lon="5.40351">
        <ele>400</ele>
        <time>2023-07-05T12:03:49Z</time>
      </trkpt>
      <trkpt lat="48.10525" lon="5.40391">
        <ele>401</ele>
        <time>2023-07-05T12:04:14Z</time>
      </trkpt>
      <trkpt lat="48.10535" lon="5.4043">
        <ele>401</ele>
        <time>2023-07-05T12:04:38Z</time>
      </trkpt>
      <trkpt lat="48.10544" lon="5.40469">
        <ele>402</ele>
        <time>2023-07-05T12:05:03Z</time>
      </trkpt>
      <trkpt lat="48.10552" lon="5.40503">
        <ele>404</ele>
        <time>2023-07-05T12:05:24Z</time>
      </trkpt>
      <trkpt lat="48.1056" lon="5.40536">
        <ele>404</ele>
        <time>2023-07-05T12:05:45Z</time>
      </trkpt>
      <trkpt lat="48.10569" lon="5.40573">
        <ele>405</ele>
        <time>2023-07-05T12:06:09Z</time>
      </trkpt>
      <trkpt lat="48.10576" lon="5.40607">
        <ele>405</ele>
        <time>2023-07-05T12:06:30Z</time>
      </trkpt>
      <trkpt lat="48.10584" lon="5.40641">
        <ele>406</ele>
        <time>2023-07-05T12:06:51Z</time>
      </trkpt>
      <trkpt lat="48.10592" lon="5.40676">
        <ele>406</ele>
        <time>2023-07-05T12:07:14Z</time>
      </trkpt>
      <trkpt lat="48.10602" lon="5.40712">
        <ele>407</ele>
        <time>2023-07-05T12:07:37Z</time>
      </trkpt>
      <trkpt lat="48.10611" lon="5.40742">
        <ele>408</ele>
        <time>2023-07-05T12:07:57Z</time>
      </trkpt>
      <trkpt lat="48.10619" lon="5.40772">
        <ele>407</ele>
        <time>2023-07-05T12:08:15Z</time>
      </trkpt>
      <trkpt lat="48.10629" lon="5.40805">
        <ele>408</ele>
        <time>2023-07-05T12:08:37Z</time>
      </trkpt>
      <trkpt lat="48.10641" lon="5.40841">
        <ele>408</ele>
        <time>2023-07-05T12:08:59Z</time>
      </trkpt>
      <trkpt lat="48.10641" lon="5.40843">
        <ele>407</ele>
        <time>2023-07-05T12:09:00Z</time>
      </trkpt>
      <trkpt lat="48.10649" lon="5.40878">
        <ele>408</ele>
        <time>2023-07-05T12:09:23Z</time>
      </trkpt>
      <trkpt lat="48.1066" lon="5.40912">
        <ele>408</ele>
        <time>2023-07-05T12:09:44Z</time>
      </trkpt>
      <trkpt lat="48.10671" lon="5.4095">
        <ele>408</ele>
        <time>2023-07-05T12:10:08Z</time>
      </trkpt>
      <trkpt lat="48.10683" lon="5.40991">
        <ele>408</ele>
        <time>2023-07-05T12:10:33Z</time>
      </trkpt>
      <trkpt lat="48.10693" lon="5.41023">
        <ele>408</ele>
        <time>2023-07-05T12:10:54Z</time>
      </trkpt>
      <trkpt lat="48.10703" lon="5.41058">
        <ele>408</ele>
        <time>2023-07-05T12:11:16Z</time>
      </trkpt>
      <trkpt lat="48.10713" lon="5.4109">
        <ele>409</ele>
        <time>2023-07-05T12:11:36Z</time>
      </trkpt>
      <trkpt lat="48.10725" lon="5.41125">
        <ele>410</ele>
        <time>2023-07-05T12:12:00Z</time>
      </trkpt>
      <trkpt lat="48.10736" lon="5.41158">
        <ele>411</ele>
        <time>2023-07-05T12:12:21Z</time>
      </trkpt>
      <trkpt lat="48.10746" lon="5.41193">
        <ele>410</ele>
        <time>2023-07-05T12:12:44Z</time>
      </trkpt>
      <trkpt lat="48.10749" lon="5.41236">
        <ele>409</ele>
        <time>2023-07-05T12:13:08Z</time>
      </trkpt>
      <trkpt lat="48.10748" lon="5.41245">
        <ele>408</ele>
        <time>2023-07-05T12:13:14Z</time>
      </trkpt>
      <trkpt lat="48.10741" lon="5.41282">
        <ele>409</ele>
        <time>2023-07-05T12:13:36Z</time>
      </trkpt>
      <trkpt lat="48.10739" lon="5.41315">
        <ele>409</ele>
        <time>2023-07-05T12:13:57Z</time>
      </trkpt>
      <trkpt lat="48.1074" lon="5.41345">
        <ele>410</ele>
        <time>2023-07-05T12:14:16Z</time>
      </trkpt>
      <trkpt lat="48.10745" lon="5.41361">
        <ele>409</ele>
        <time>2023-07-05T12:14:33Z</time>
      </trkpt>
      <trkpt lat="48.10743" lon="5.41383">
        <ele>411</ele>
        <time>2023-07-05T12:14:49Z</time>
      </trkpt>
      <trkpt lat="48.10742" lon="5.41415">
        <ele>410</ele>
        <time>2023-07-05T12:15:08Z</time>
      </trkpt>
      <trkpt lat="48.10739" lon="5.41437">
        <ele>409</ele>
        <time>2023-07-05T12:15:23Z</time>
      </trkpt>
      <trkpt lat="48.10736" lon="5.41443">
        <ele>409</ele>
        <time>2023-07-05T12:15:27Z</time>
      </trkpt>
      <trkpt lat="48.10726" lon="5.41478">
        <ele>410</ele>
        <time>2023-07-05T12:15:48Z</time>
      </trkpt>
      <trkpt lat="48.10718" lon="5.41518">
        <ele>409</ele>
        <time>2023-07-05T12:16:09Z</time>
      </trkpt>
      <trkpt lat="48.10717" lon="5.41547">
        <ele>409</ele>
        <time>2023-07-05T12:16:27Z</time>
      </trkpt>
      <trkpt lat="48.10715" lon="5.41552">
        <ele>409</ele>
        <time>2023-07-05T12:16:31Z</time>
      </trkpt>
      <trkpt lat="48.10707" lon="5.41579">
        <ele>409</ele>
        <time>2023-07-05T12:16:49Z</time>
      </trkpt>
      <trkpt lat="48.10701" lon="5.41606">
        <ele>408</ele>
        <time>2023-07-05T12:17:04Z</time>
      </trkpt>
      <trkpt lat="48.10692" lon="5.41641">
        <ele>409</ele>
        <time>2023-07-05T12:17:25Z</time>
      </trkpt>
      <trkpt lat="48.10689" lon="5.41676">
        <ele>408</ele>
        <time>2023-07-05T12:17:46Z</time>
      </trkpt>
      <trkpt lat="48.10692" lon="5.41706">
        <ele>408</ele>
        <time>2023-07-05T12:18:03Z</time>
      </trkpt>
      <trkpt lat="48.10698" lon="5.41735">
        <ele>408</ele>
        <time>2023-07-05T12:18:21Z</time>
      </trkpt>
      <trkpt lat="48.10702" lon="5.41759">
        <ele>409</ele>
        <time>2023-07-05T12:18:36Z</time>
      </trkpt>
      <trkpt lat="48.10707" lon="5.41785">
        <ele>409</ele>
        <time>2023-07-05T12:18:52Z</time>
      </trkpt>
      <trkpt lat="48.10708" lon="5.41789">
        <ele>409</ele>
        <time>2023-07-05T12:19:09Z</time>
      </trkpt>
      <trkpt lat="48.10708" lon="5.41792">
        <ele>409</ele>
        <time>2023-07-05T12:19:11Z</time>
      </trkpt>
      <trkpt lat="48.10703" lon="5.41834">
        <ele>410</ele>
        <time>2023-07-05T12:19:33Z</time>
      </trkpt>
      <trkpt lat="48.10698" lon="5.4187">
        <ele>409</ele>
        <time>2023-07-05T12:19:54Z</time>
      </trkpt>
      <trkpt lat="48.10696" lon="5.41905">
        <ele>410</ele>
        <time>2023-07-05T12:20:14Z</time>
      </trkpt>
      <trkpt lat="48.107" lon="5.41945">
        <ele>408</ele>
        <time>2023-07-05T12:20:37Z</time>
      </trkpt>
      <trkpt lat="48.10707" lon="5.41982">
        <ele>409</ele>
        <time>2023-07-05T12:20:59Z</time>
      </trkpt>
      <trkpt lat="48.10714" lon="5.4202">
        <ele>409</ele>
        <time>2023-07-05T12:21:22Z</time>
      </trkpt>
      <trkpt lat="48.10724" lon="5.42057">
        <ele>411</ele>
        <time>2023-07-05T12:21:45Z</time>
      </trkpt>
      <trkpt lat="48.10733" lon="5.42089">
        <ele>409</ele>
        <time>2023-07-05T12:22:05Z</time>
      </trkpt>
      <trkpt lat="48.10743" lon="5.42121">
        <ele>409</ele>
        <time>2023-07-05T12:22:25Z</time>
      </trkpt>
      <trkpt lat="48.10755" lon="5.4216">
        <ele>409</ele>
        <time>2023-07-05T12:22:49Z</time>
      </trkpt>
      <trkpt lat="48.10769" lon="5.42194">
        <ele>407</ele>
        <time>2023-07-05T12:23:12Z</time>
      </trkpt>
      <trkpt lat="48.10778" lon="5.42219">
        <ele>406</ele>
        <time>2023-07-05T12:23:29Z</time>
      </trkpt>
      <trkpt lat="48.10789" lon="5.42256">
        <ele>404</ele>
        <time>2023-07-05T12:23:51Z</time>
      </trkpt>
      <trkpt lat="48.10794" lon="5.42291">
        <ele>404</ele>
        <time>2023-07-05T12:24:11Z</time>
      </trkpt>
      <trkpt lat="48.10794" lon="5.423">
        <ele>404</ele>
        <time>2023-07-05T12:24:16Z</time>
      </trkpt>
      <trkpt lat="48.10791" lon="5.42335">
        <ele>403</ele>
        <time>2023-07-05T12:24:37Z</time>
      </trkpt>
      <trkpt lat="48.10791" lon="5.42337">
        <ele>403</ele>
        <time>2023-07-05T12:24:38Z</time>
      </trkpt>
      <trkpt lat="48.10785" lon="5.42378">
        <ele>404</ele>
        <time>2023-07-05T12:25:02Z</time>
      </trkpt>
      <trkpt lat="48.10778" lon="5.4241">
        <ele>406</ele>
        <time>2023-07-05T12:25:22Z</time>
      </trkpt>
      <trkpt lat="48.10777" lon="5.42446">
        <ele>406</ele>
        <time>2023-07-05T12:25:45Z</time>
      </trkpt>
      <trkpt lat="48.10777" lon="5.42485">
        <ele>406</ele>
        <time>2023-07-05T12:26:08Z</time>
      </trkpt>
      <trkpt lat="48.10775" lon="5.4252">
        <ele>407</ele>
        <time>2023-07-05T12:26:29Z</time>
      </trkpt>
      <trkpt lat="48.10774" lon="5.4256">
        <ele>406</ele>
        <time>2023-07-05T12:26:50Z</time>
      </trkpt>
      <trkpt lat="48.10773" lon="5.426">
        <ele>405</ele>
        <time>2023-07-05T12:27:13Z</time>
      </trkpt>
      <trkpt lat="48.10774" lon="5.42634">
        <ele>406</ele>
        <time>2023-07-05T12:27:32Z</time>
      </trkpt>
      <trkpt lat="48.10771" lon="5.42655">
        <ele>405</ele>
        <time>2023-07-05T12:27:50Z</time>
      </trkpt>
      <trkpt lat="48.10771" lon="5.42655">
        <ele>405</ele>
        <time>2023-07-05T12:28:21Z</time>
      </trkpt>
      <trkpt lat="48.10771" lon="5.42659">
        <ele>405</ele>
        <time>2023-07-05T12:28:55Z</time>
      </trkpt>
      <trkpt lat="48.10768" lon="5.42663">
        <ele>405</ele>
        <time>2023-07-05T12:29:27Z</time>
      </trkpt>
      <trkpt lat="48.1077" lon="5.42661">
        <ele>405</ele>
        <time>2023-07-05T12:29:58Z</time>
      </trkpt>
      <trkpt lat="48.10771" lon="5.4266">
        <ele>405</ele>
        <time>2023-07-05T12:30:21Z</time>
      </trkpt>
      <trkpt lat="48.1077" lon="5.42663">
        <ele>405</ele>
        <time>2023-07-05T12:30:48Z</time>
      </trkpt>
      <trkpt lat="48.10772" lon="5.42663">
        <ele>405</ele>
        <time>2023-07-05T12:31:13Z</time>
      </trkpt>
      <trkpt lat="48.10773" lon="5.42668">
        <ele>404</ele>
        <time>2023-07-05T12:31:20Z</time>
      </trkpt>
      <trkpt lat="48.10766" lon="5.427">
        <ele>405</ele>
        <time>2023-07-05T12:31:40Z</time>
      </trkpt>
      <trkpt lat="48.10753" lon="5.42727">
        <ele>405</ele>
        <time>2023-07-05T12:31:57Z</time>
      </trkpt>
      <trkpt lat="48.1074" lon="5.42753">
        <ele>404</ele>
        <time>2023-07-05T12:32:16Z</time>
      </trkpt>
      <trkpt lat="48.1073" lon="5.4278">
        <ele>403</ele>
        <time>2023-07-05T12:32:34Z</time>
      </trkpt>
      <trkpt lat="48.10724" lon="5.42803">
        <ele>402</ele>
        <time>2023-07-05T12:32:50Z</time>
      </trkpt>
      <trkpt lat="48.10718" lon="5.42828">
        <ele>402</ele>
        <time>2023-07-05T12:33:04Z</time>
      </trkpt>
      <trkpt lat="48.1071" lon="5.42863">
        <ele>401</ele>
        <time>2023-07-05T12:33:23Z</time>
      </trkpt>
      <trkpt lat="48.10701" lon="5.42891">
        <ele>401</ele>
        <time>2023-07-05T12:33:40Z</time>
      </trkpt>
      <trkpt lat="48.10685" lon="5.4291">
        <ele>400</ele>
        <time>2023-07-05T12:33:59Z</time>
      </trkpt>
      <trkpt lat="48.10681" lon="5.42912">
        <ele>401</ele>
        <time>2023-07-05T12:34:01Z</time>
      </trkpt>
      <trkpt lat="48.10663" lon="5.42925">
        <ele>401</ele>
        <time>2023-07-05T12:34:18Z</time>
      </trkpt>
      <trkpt lat="48.10641" lon="5.42938">
        <ele>401</ele>
        <time>2023-07-05T12:34:39Z</time>
      </trkpt>
      <trkpt lat="48.1063" lon="5.42942">
        <ele>402</ele>
        <time>2023-07-05T12:34:49Z</time>
      </trkpt>
      <trkpt lat="48.10607" lon="5.42957">
        <ele>404</ele>
        <time>2023-07-05T12:35:09Z</time>
      </trkpt>
      <trkpt lat="48.10606" lon="5.42959">
        <ele>404</ele>
        <time>2023-07-05T12:35:11Z</time>
      </trkpt>
      <trkpt lat="48.10589" lon="5.42979">
        <ele>406</ele>
        <time>2023-07-05T12:35:30Z</time>
      </trkpt>
      <trkpt lat="48.10588" lon="5.42981">
        <ele>406</ele>
        <time>2023-07-05T12:35:32Z</time>
      </trkpt>
      <trkpt lat="48.10578" lon="5.42998">
        <ele>407</ele>
        <time>2023-07-05T12:35:46Z</time>
      </trkpt>
      <trkpt lat="48.10566" lon="5.43019">
        <ele>408</ele>
        <time>2023-07-05T12:36:02Z</time>
      </trkpt>
      <trkpt lat="48.10552" lon="5.43042">
        <ele>410</ele>
        <time>2023-07-05T12:36:21Z</time>
      </trkpt>
      <trkpt lat="48.10538" lon="5.43068">
        <ele>411</ele>
        <time>2023-07-05T12:36:42Z</time>
      </trkpt>
      <trkpt lat="48.10533" lon="5.43081">
        <ele>412</ele>
        <time>2023-07-05T12:36:51Z</time>
      </trkpt>
      <trkpt lat="48.10519" lon="5.43108">
        <ele>414</ele>
        <time>2023-07-05T12:37:11Z</time>
      </trkpt>
      <trkpt lat="48.10504" lon="5.43135">
        <ele>413</ele>
        <time>2023-07-05T12:37:32Z</time>
      </trkpt>
      <trkpt lat="48.1049" lon="5.43159">
        <ele>415</ele>
        <time>2023-07-05T12:37:51Z</time>
      </trkpt>
      <trkpt lat="48.10476" lon="5.43187">
        <ele>415</ele>
        <time>2023-07-05T12:38:12Z</time>
      </trkpt>
      <trkpt lat="48.10461" lon="5.43214">
        <ele>417</ele>
        <time>2023-07-05T12:38:34Z</time>
      </trkpt>
      <trkpt lat="48.10444" lon="5.43247">
        <ele>417</ele>
        <time>2023-07-05T12:38:58Z</time>
      </trkpt>
      <trkpt lat="48.10431" lon="5.43276">
        <ele>419</ele>
        <time>2023-07-05T12:39:18Z</time>
      </trkpt>
      <trkpt lat="48.10417" lon="5.43303">
        <ele>419</ele>
        <time>2023-07-05T12:39:38Z</time>
      </trkpt>
      <trkpt lat="48.10412" lon="5.43313">
        <ele>419</ele>
        <time>2023-07-05T12:39:46Z</time>
      </trkpt>
      <trkpt lat="48.10411" lon="5.43318">
        <ele>419</ele>
        <time>2023-07-05T12:39:50Z</time>
      </trkpt>
      <trkpt lat="48.10397" lon="5.43339">
        <ele>420</ele>
        <time>2023-07-05T12:40:08Z</time>
      </trkpt>
      <trkpt lat="48.10382" lon="5.43372">
        <ele>420</ele>
        <time>2023-07-05T12:40:32Z</time>
      </trkpt>
      <trkpt lat="48.10372" lon="5.434">
        <ele>422</ele>
        <time>2023-07-05T12:40:51Z</time>
      </trkpt>
      <trkpt lat="48.1036" lon="5.43428">
        <ele>422</ele>
        <time>2023-07-05T12:41:11Z</time>
      </trkpt>
      <trkpt lat="48.1035" lon="5.43453">
        <ele>424</ele>
        <time>2023-07-05T12:41:29Z</time>
      </trkpt>
      <trkpt lat="48.1034" lon="5.43478">
        <ele>425</ele>
        <time>2023-07-05T12:41:48Z</time>
      </trkpt>
      <trkpt lat="48.10329" lon="5.43503">
        <ele>426</ele>
        <time>2023-07-05T12:42:07Z</time>
      </trkpt>
      <trkpt lat="48.10317" lon="5.43527">
        <ele>427</ele>
        <time>2023-07-05T12:42:26Z</time>
      </trkpt>
      <trkpt lat="48.10306" lon="5.43554">
        <ele>429</ele>
        <time>2023-07-05T12:42:46Z</time>
      </trkpt>
      <trkpt lat="48.10294" lon="5.43579">
        <ele>430</ele>
        <time>2023-07-05T12:43:05Z</time>
      </trkpt>
      <trkpt lat="48.10284" lon="5.43607">
        <ele>431</ele>
        <time>2023-07-05T12:43:25Z</time>
      </trkpt>
      <trkpt lat="48.10269" lon="5.43637">
        <ele>433</ele>
        <time>2023-07-05T12:43:50Z</time>
      </trkpt>
      <trkpt lat="48.10253" lon="5.43664">
        <ele>435</ele>
        <time>2023-07-05T12:44:13Z</time>
      </trkpt>
      <trkpt lat="48.1024" lon="5.43688">
        <ele>437</ele>
        <time>2023-07-05T12:44:33Z</time>
      </trkpt>
      <trkpt lat="48.10227" lon="5.43708">
        <ele>438</ele>
        <time>2023-07-05T12:44:52Z</time>
      </trkpt>
      <trkpt lat="48.10213" lon="5.43736">
        <ele>439</ele>
        <time>2023-07-05T12:45:14Z</time>
      </trkpt>
      <trkpt lat="48.10199" lon="5.43764">
        <ele>441</ele>
        <time>2023-07-05T12:45:36Z</time>
      </trkpt>
      <trkpt lat="48.10186" lon="5.4379">
        <ele>442</ele>
        <time>2023-07-05T12:45:56Z</time>
      </trkpt>
      <trkpt lat="48.10177" lon="5.43817">
        <ele>443</ele>
        <time>2023-07-05T12:46:14Z</time>
      </trkpt>
      <trkpt lat="48.10168" lon="5.4383">
        <ele>444</ele>
        <time>2023-07-05T12:46:30Z</time>
      </trkpt>
      <trkpt lat="48.10153" lon="5.43861">
        <ele>445</ele>
        <time>2023-07-05T12:46:52Z</time>
      </trkpt>
      <trkpt lat="48.10144" lon="5.43888">
        <ele>445</ele>
        <time>2023-07-05T12:47:10Z</time>
      </trkpt>
      <trkpt lat="48.10132" lon="5.43928">
        <ele>446</ele>
        <time>2023-07-05T12:47:36Z</time>
      </trkpt>
      <trkpt lat="48.10122" lon="5.4396">
        <ele>446</ele>
        <time>2023-07-05T12:47:57Z</time>
      </trkpt>
      <trkpt lat="48.10107" lon="5.43997">
        <ele>446</ele>
        <time>2023-07-05T12:48:22Z</time>
      </trkpt>
      <trkpt lat="48.10091" lon="5.44029">
        <ele>445</ele>
        <time>2023-07-05T12:48:45Z</time>
      </trkpt>
      <trkpt lat="48.10075" lon="5.44053">
        <ele>444</ele>
        <time>2023-07-05T12:49:05Z</time>
      </trkpt>
      <trkpt lat="48.10057" lon="5.44084">
        <ele>442</ele>
        <time>2023-07-05T12:49:29Z</time>
      </trkpt>
      <trkpt lat="48.10038" lon="5.44107">
        <ele>441</ele>
        <time>2023-07-05T12:49:50Z</time>
      </trkpt>
      <trkpt lat="48.10028" lon="5.44134">
        <ele>439</ele>
        <time>2023-07-05T12:50:08Z</time>
      </trkpt>
      <trkpt lat="48.10017" lon="5.44167">
        <ele>437</ele>
        <time>2023-07-05T12:50:29Z</time>
      </trkpt>
      <trkpt lat="48.10007" lon="5.44201">
        <ele>436</ele>
        <time>2023-07-05T12:50:50Z</time>
      </trkpt>
      <trkpt lat="48.09994" lon="5.44236">
        <ele>433</ele>
        <time>2023-07-05T12:51:14Z</time>
      </trkpt>
      <trkpt lat="48.09974" lon="5.44272">
        <ele>431</ele>
        <time>2023-07-05T12:51:41Z</time>
      </trkpt>
      <trkpt lat="48.09952" lon="5.443">
        <ele>430</ele>
        <time>2023-07-05T12:52:05Z</time>
      </trkpt>
      <trkpt lat="48.09931" lon="5.44317">
        <ele>428</ele>
        <time>2023-07-05T12:52:27Z</time>
      </trkpt>
      <trkpt lat="48.09903" lon="5.44337">
        <ele>427</ele>
        <time>2023-07-05T12:52:54Z</time>
      </trkpt>
      <trkpt lat="48.09877" lon="5.44353">
        <ele>426</ele>
        <time>2023-07-05T12:53:17Z</time>
      </trkpt>
      <trkpt lat="48.09853" lon="5.44368">
        <ele>426</ele>
        <time>2023-07-05T12:53:40Z</time>
      </trkpt>
      <trkpt lat="48.09827" lon="5.44376">
        <ele>425</ele>
        <time>2023-07-05T12:54:02Z</time>
      </trkpt>
      <trkpt lat="48.098" lon="5.44378">
        <ele>423</ele>
        <time>2023-07-05T12:54:25Z</time>
      </trkpt>
      <trkpt lat="48.09776" lon="5.44377">
        <ele>421</ele>
        <time>2023-07-05T12:54:45Z</time>
      </trkpt>
      <trkpt lat="48.09756" lon="5.4437">
        <ele>419</ele>
        <time>2023-07-05T12:55:02Z</time>
      </trkpt>
      <trkpt lat="48.09745" lon="5.44363">
        <ele>419</ele>
        <time>2023-07-05T12:55:12Z</time>
      </trkpt>
      <trkpt lat="48.09727" lon="5.44346">
        <ele>415</ele>
        <time>2023-07-05T12:55:31Z</time>
      </trkpt>
      <trkpt lat="48.09726" lon="5.44345">
        <ele>415</ele>
        <time>2023-07-05T12:55:32Z</time>
      </trkpt>
      <trkpt lat="48.0971" lon="5.44321">
        <ele>415</ele>
        <time>2023-07-05T12:55:51Z</time>
      </trkpt>
      <trkpt lat="48.097" lon="5.44294">
        <ele>413</ele>
        <time>2023-07-05T12:56:09Z</time>
      </trkpt>
      <trkpt lat="48.09699" lon="5.44288">
        <ele>413</ele>
        <time>2023-07-05T12:56:12Z</time>
      </trkpt>
      <trkpt lat="48.09687" lon="5.44251">
        <ele>411</ele>
        <time>2023-07-05T12:56:36Z</time>
      </trkpt>
      <trkpt lat="48.09685" lon="5.44248">
        <ele>412</ele>
        <time>2023-07-05T12:56:39Z</time>
      </trkpt>
      <trkpt lat="48.09668" lon="5.44221">
        <ele>408</ele>
        <time>2023-07-05T12:57:00Z</time>
      </trkpt>
      <trkpt lat="48.09653" lon="5.442">
        <ele>407</ele>
        <time>2023-07-05T12:57:16Z</time>
      </trkpt>
      <trkpt lat="48.09633" lon="5.44172">
        <ele>404</ele>
        <time>2023-07-05T12:57:36Z</time>
      </trkpt>
      <trkpt lat="48.09623" lon="5.44155">
        <ele>402</ele>
        <time>2023-07-05T12:57:54Z</time>
      </trkpt>
      <trkpt lat="48.09623" lon="5.44154">
        <ele>402</ele>
        <time>2023-07-05T12:57:55Z</time>
      </trkpt>
      <trkpt lat="48.09616" lon="5.44147">
        <ele>401</ele>
        <time>2023-07-05T12:58:14Z</time>
      </trkpt>
      <trkpt lat="48.09619" lon="5.44146">
        <ele>402</ele>
        <time>2023-07-05T12:58:29Z</time>
      </trkpt>
      <trkpt lat="48.09619" lon="5.44152">
        <ele>402</ele>
        <time>2023-07-05T12:58:54Z</time>
      </trkpt>
      <trkpt lat="48.09617" lon="5.44151">
        <ele>401</ele>
        <time>2023-07-05T12:59:22Z</time>
      </trkpt>
      <trkpt lat="48.09618" lon="5.44151">
        <ele>402</ele>
        <time>2023-07-05T12:59:53Z</time>
      </trkpt>
      <trkpt lat="48.09616" lon="5.44152">
        <ele>402</ele>
        <time>2023-07-05T13:00:32Z</time>
      </trkpt>
      <trkpt lat="48.09616" lon="5.44154">
        <ele>401</ele>
        <time>2023-07-05T13:01:06Z</time>
      </trkpt>
      <trkpt lat="48.09618" lon="5.44152">
        <ele>401</ele>
        <time>2023-07-05T13:01:43Z</time>
      </trkpt>
      <trkpt lat="48.09617" lon="5.44151">
        <ele>401</ele>
        <time>2023-07-05T13:02:16Z</time>
      </trkpt>
      <trkpt lat="48.0962" lon="5.44152">
        <ele>401</ele>
        <time>2023-07-05T13:02:52Z</time>
      </trkpt>
      <trkpt lat="48.09618" lon="5.44152">
        <ele>401</ele>
        <time>2023-07-05T13:03:15Z</time>
      </trkpt>
      <trkpt lat="48.09616" lon="5.44153">
        <ele>401</ele>
        <time>2023-07-05T13:03:53Z</time>
      </trkpt>
      <trkpt lat="48.09617" lon="5.44152">
        <ele>401</ele>
        <time>2023-07-05T13:04:28Z</time>
      </trkpt>
      <trkpt lat="48.09615" lon="5.44153">
        <ele>402</ele>
        <time>2023-07-05T13:05:07Z</time>
      </trkpt>
      <trkpt lat="48.09616" lon="5.44155">
        <ele>402</ele>
        <time>2023-07-05T13:05:43Z</time>
      </trkpt>
      <trkpt lat="48.09614" lon="5.4416">
        <ele>402</ele>
        <time>2023-07-05T13:06:20Z</time>
      </trkpt>
      <trkpt lat="48.09618" lon="5.44161">
        <ele>402</ele>
        <time>2023-07-05T13:06:50Z</time>
      </trkpt>
      <trkpt lat="48.09613" lon="5.44159">
        <ele>403</ele>
        <time>2023-07-05T13:07:25Z</time>
      </trkpt>
      <trkpt lat="48.09615" lon="5.4416">
        <ele>404</ele>
        <time>2023-07-05T13:07:56Z</time>
      </trkpt>
      <trkpt lat="48.09613" lon="5.44164">
        <ele>404</ele>
        <time>2023-07-05T13:08:34Z</time>
      </trkpt>
      <trkpt lat="48.09613" lon="5.44158">
        <ele>404</ele>
        <time>2023-07-05T13:09:09Z</time>
      </trkpt>
      <trkpt lat="48.09611" lon="5.44159">
        <ele>405</ele>
        <time>2023-07-05T13:09:53Z</time>
      </trkpt>
      <trkpt lat="48.09612" lon="5.44158">
        <ele>405</ele>
        <time>2023-07-05T13:10:35Z</time>
      </trkpt>
      <trkpt lat="48.09613" lon="5.44155">
        <ele>405</ele>
        <time>2023-07-05T13:11:13Z</time>
      </trkpt>
      <trkpt lat="48.09611" lon="5.44153">
        <ele>407</ele>
        <time>2023-07-05T13:11:45Z</time>
      </trkpt>
      <trkpt lat="48.09607" lon="5.4414">
        <ele>406</ele>
        <time>2023-07-05T13:12:03Z</time>
      </trkpt>
      <trkpt lat="48.09599" lon="5.44116">
        <ele>404</ele>
        <time>2023-07-05T13:12:19Z</time>
      </trkpt>
      <trkpt lat="48.09585" lon="5.44082">
        <ele>402</ele>
        <time>2023-07-05T13:12:43Z</time>
      </trkpt>
      <trkpt lat="48.09581" lon="5.44048">
        <ele>402</ele>
        <time>2023-07-05T13:13:02Z</time>
      </trkpt>
      <trkpt lat="48.09575" lon="5.44013">
        <ele>402</ele>
        <time>2023-07-05T13:13:23Z</time>
      </trkpt>
      <trkpt lat="48.09567" lon="5.43984">
        <ele>402</ele>
        <time>2023-07-05T13:13:42Z</time>
      </trkpt>
      <trkpt lat="48.09552" lon="5.4395">
        <ele>401</ele>
        <time>2023-07-05T13:14:04Z</time>
      </trkpt>
      <trkpt lat="48.09539" lon="5.4391">
        <ele>399</ele>
        <time>2023-07-05T13:14:29Z</time>
      </trkpt>
      <trkpt lat="48.09526" lon="5.43878">
        <ele>398</ele>
        <time>2023-07-05T13:14:49Z</time>
      </trkpt>
      <trkpt lat="48.09516" lon="5.43855">
        <ele>398</ele>
        <time>2023-07-05T13:15:04Z</time>
      </trkpt>
      <trkpt lat="48.09497" lon="5.43832">
        <ele>396</ele>
        <time>2023-07-05T13:15:25Z</time>
      </trkpt>
      <trkpt lat="48.09478" lon="5.43816">
        <ele>394</ele>
        <time>2023-07-05T13:15:45Z</time>
      </trkpt>
      <trkpt lat="48.0946" lon="5.43802">
        <ele>393</ele>
        <time>2023-07-05T13:16:03Z</time>
      </trkpt>
      <trkpt lat="48.09454" lon="5.4377">
        <ele>392</ele>
        <time>2023-07-05T13:16:22Z</time>
      </trkpt>
      <trkpt lat="48.09454" lon="5.43767">
        <ele>392</ele>
        <time>2023-07-05T13:16:24Z</time>
      </trkpt>
      <trkpt lat="48.09457" lon="5.43732">
        <ele>390</ele>
        <time>2023-07-05T13:16:44Z</time>
      </trkpt>
      <trkpt lat="48.09448" lon="5.43712">
        <ele>392</ele>
        <time>2023-07-05T13:16:58Z</time>
      </trkpt>
      <trkpt lat="48.09424" lon="5.4371">
        <ele>391</ele>
        <time>2023-07-05T13:17:19Z</time>
      </trkpt>
      <trkpt lat="48.094" lon="5.43718">
        <ele>392</ele>
        <time>2023-07-05T13:17:39Z</time>
      </trkpt>
      <trkpt lat="48.09384" lon="5.43733">
        <ele>394</ele>
        <time>2023-07-05T13:17:56Z</time>
      </trkpt>
      <trkpt lat="48.09384" lon="5.43737">
        <ele>394</ele>
        <time>2023-07-05T13:17:58Z</time>
      </trkpt>
      <trkpt lat="48.09398" lon="5.43761">
        <ele>392</ele>
        <time>2023-07-05T13:18:14Z</time>
      </trkpt>
      <trkpt lat="48.09414" lon="5.43783">
        <ele>391</ele>
        <time>2023-07-05T13:18:33Z</time>
      </trkpt>
      <trkpt lat="48.09439" lon="5.43792">
        <ele>391</ele>
        <time>2023-07-05T13:18:55Z</time>
      </trkpt>
      <trkpt lat="48.09461" lon="5.4381">
        <ele>392</ele>
        <time>2023-07-05T13:19:16Z</time>
      </trkpt>
      <trkpt lat="48.09476" lon="5.4382">
        <ele>393</ele>
        <time>2023-07-05T13:19:33Z</time>
      </trkpt>
      <trkpt lat="48.09489" lon="5.4383">
        <ele>396</ele>
        <time>2023-07-05T13:19:48Z</time>
      </trkpt>
      <trkpt lat="48.09513" lon="5.43853">
        <ele>396</ele>
        <time>2023-07-05T13:20:08Z</time>
      </trkpt>
      <trkpt lat="48.09525" lon="5.4388">
        <ele>398</ele>
        <time>2023-07-05T13:20:28Z</time>
      </trkpt>
      <trkpt lat="48.09535" lon="5.43909">
        <ele>398</ele>
        <time>2023-07-05T13:20:48Z</time>
      </trkpt>
      <trkpt lat="48.09546" lon="5.43935">
        <ele>399</ele>
        <time>2023-07-05T13:21:07Z</time>
      </trkpt>
      <trkpt lat="48.09557" lon="5.43959">
        <ele>400</ele>
        <time>2023-07-05T13:21:24Z</time>
      </trkpt>
      <trkpt lat="48.09568" lon="5.43986">
        <ele>401</ele>
        <time>2023-07-05T13:21:43Z</time>
      </trkpt>
      <trkpt lat="48.09575" lon="5.44015">
        <ele>402</ele>
        <time>2023-07-05T13:22:01Z</time>
      </trkpt>
      <trkpt lat="48.09577" lon="5.44045">
        <ele>401</ele>
        <time>2023-07-05T13:22:19Z</time>
      </trkpt>
      <trkpt lat="48.09579" lon="5.44055">
        <ele>401</ele>
        <time>2023-07-05T13:22:25Z</time>
      </trkpt>
      <trkpt lat="48.09581" lon="5.44063">
        <ele>401</ele>
        <time>2023-07-05T13:22:30Z</time>
      </trkpt>
      <trkpt lat="48.0958" lon="5.44092">
        <ele>401</ele>
        <time>2023-07-05T13:22:46Z</time>
      </trkpt>
      <trkpt lat="48.09566" lon="5.44125">
        <ele>401</ele>
        <time>2023-07-05T13:23:07Z</time>
      </trkpt>
      <trkpt lat="48.09554" lon="5.44151">
        <ele>401</ele>
        <time>2023-07-05T13:23:26Z</time>
      </trkpt>
      <trkpt lat="48.09552" lon="5.44153">
        <ele>400</ele>
        <time>2023-07-05T13:23:28Z</time>
      </trkpt>
      <trkpt lat="48.09548" lon="5.44161">
        <ele>400</ele>
        <time>2023-07-05T13:23:34Z</time>
      </trkpt>
      <trkpt lat="48.09536" lon="5.44186">
        <ele>400</ele>
        <time>2023-07-05T13:23:52Z</time>
      </trkpt>
      <trkpt lat="48.09525" lon="5.44215">
        <ele>401</ele>
        <time>2023-07-05T13:24:10Z</time>
      </trkpt>
      <trkpt lat="48.09517" lon="5.44232">
        <ele>400</ele>
        <time>2023-07-05T13:24:21Z</time>
      </trkpt>
      <trkpt lat="48.09515" lon="5.44245">
        <ele>400</ele>
        <time>2023-07-05T13:24:29Z</time>
      </trkpt>
      <trkpt lat="48.095" lon="5.44277">
        <ele>400</ele>
        <time>2023-07-05T13:24:50Z</time>
      </trkpt>
      <trkpt lat="48.09481" lon="5.44304">
        <ele>400</ele>
        <time>2023-07-05T13:25:12Z</time>
      </trkpt>
      <trkpt lat="48.09471" lon="5.44336">
        <ele>400</ele>
        <time>2023-07-05T13:25:33Z</time>
      </trkpt>
      <trkpt lat="48.09459" lon="5.44368">
        <ele>401</ele>
        <time>2023-07-05T13:25:54Z</time>
      </trkpt>
      <trkpt lat="48.09452" lon="5.44388">
        <ele>402</ele>
        <time>2023-07-05T13:26:07Z</time>
      </trkpt>
      <trkpt lat="48.0944" lon="5.44418">
        <ele>402</ele>
        <time>2023-07-05T13:26:27Z</time>
      </trkpt>
      <trkpt lat="48.09431" lon="5.4444">
        <ele>404</ele>
        <time>2023-07-05T13:26:42Z</time>
      </trkpt>
      <trkpt lat="48.0943" lon="5.44443">
        <ele>404</ele>
        <time>2023-07-05T13:26:44Z</time>
      </trkpt>
      <trkpt lat="48.09417" lon="5.44471">
        <ele>404</ele>
        <time>2023-07-05T13:27:05Z</time>
      </trkpt>
      <trkpt lat="48.09401" lon="5.44493">
        <ele>404</ele>
        <time>2023-07-05T13:27:24Z</time>
      </trkpt>
      <trkpt lat="48.09393" lon="5.44513">
        <ele>405</ele>
        <time>2023-07-05T13:27:38Z</time>
      </trkpt>
      <trkpt lat="48.09374" lon="5.44535">
        <ele>404</ele>
        <time>2023-07-05T13:27:58Z</time>
      </trkpt>
      <trkpt lat="48.09356" lon="5.4456">
        <ele>405</ele>
        <time>2023-07-05T13:28:18Z</time>
      </trkpt>
      <trkpt lat="48.09338" lon="5.44583">
        <ele>405</ele>
        <time>2023-07-05T13:28:38Z</time>
      </trkpt>
      <trkpt lat="48.09323" lon="5.44613">
        <ele>405</ele>
        <time>2023-07-05T13:29:00Z</time>
      </trkpt>
      <trkpt lat="48.0931" lon="5.4464">
        <ele>405</ele>
        <time>2023-07-05T13:29:18Z</time>
      </trkpt>
      <trkpt lat="48.09306" lon="5.44652">
        <ele>405</ele>
        <time>2023-07-05T13:29:25Z</time>
      </trkpt>
      <trkpt lat="48.09296" lon="5.44691">
        <ele>406</ele>
        <time>2023-07-05T13:29:49Z</time>
      </trkpt>
      <trkpt lat="48.09295" lon="5.44725">
        <ele>407</ele>
        <time>2023-07-05T13:30:09Z</time>
      </trkpt>
      <trkpt lat="48.09292" lon="5.44755">
        <ele>408</ele>
        <time>2023-07-05T13:30:27Z</time>
      </trkpt>
      <trkpt lat="48.0929" lon="5.44787">
        <ele>409</ele>
        <time>2023-07-05T13:30:46Z</time>
      </trkpt>
      <trkpt lat="48.09291" lon="5.44801">
        <ele>409</ele>
        <time>2023-07-05T13:30:54Z</time>
      </trkpt>
      <trkpt lat="48.09291" lon="5.44833">
        <ele>409</ele>
        <time>2023-07-05T13:31:13Z</time>
      </trkpt>
      <trkpt lat="48.09293" lon="5.44847">
        <ele>409</ele>
        <time>2023-07-05T13:31:21Z</time>
      </trkpt>
      <trkpt lat="48.09293" lon="5.44882">
        <ele>409</ele>
        <time>2023-07-05T13:31:42Z</time>
      </trkpt>
      <trkpt lat="48.09296" lon="5.44914">
        <ele>410</ele>
        <time>2023-07-05T13:32:02Z</time>
      </trkpt>
      <trkpt lat="48.09297" lon="5.44943">
        <ele>410</ele>
        <time>2023-07-05T13:32:19Z</time>
      </trkpt>
      <trkpt lat="48.09302" lon="5.44974">
        <ele>410</ele>
        <time>2023-07-05T13:32:38Z</time>
      </trkpt>
      <trkpt lat="48.09301" lon="5.44981">
        <ele>411</ele>
        <time>2023-07-05T13:32:42Z</time>
      </trkpt>
      <trkpt lat="48.09301" lon="5.45011">
        <ele>411</ele>
        <time>2023-07-05T13:33:01Z</time>
      </trkpt>
      <trkpt lat="48.09304" lon="5.45043">
        <ele>411</ele>
        <time>2023-07-05T13:33:20Z</time>
      </trkpt>
      <trkpt lat="48.09305" lon="5.45075">
        <ele>411</ele>
        <time>2023-07-05T13:33:39Z</time>
      </trkpt>
      <trkpt lat="48.09304" lon="5.4511">
        <ele>412</ele>
        <time>2023-07-05T13:34:00Z</time>
      </trkpt>
      <trkpt lat="48.09306" lon="5.45148">
        <ele>411</ele>
        <time>2023-07-05T13:34:22Z</time>
      </trkpt>
      <trkpt lat="48.09311" lon="5.45186">
        <ele>412</ele>
        <time>2023-07-05T13:34:44Z</time>
      </trkpt>
      <trkpt lat="48.09318" lon="5.45221">
        <ele>413</ele>
        <time>2023-07-05T13:35:07Z</time>
      </trkpt>
      <trkpt lat="48.09324" lon="5.45254">
        <ele>415</ele>
        <time>2023-07-05T13:35:29Z</time>
      </trkpt>
      <trkpt lat="48.09332" lon="5.45287">
        <ele>416</ele>
        <time>2023-07-05T13:35:51Z</time>
      </trkpt>
      <trkpt lat="48.09338" lon="5.45321">
        <ele>418</ele>
        <time>2023-07-05T13:36:14Z</time>
      </trkpt>
      <trkpt lat="48.09345" lon="5.45349">
        <ele>421</ele>
        <time>2023-07-05T13:36:34Z</time>
      </trkpt>
      <trkpt lat="48.09353" lon="5.45381">
        <ele>423</ele>
        <time>2023-07-05T13:36:57Z</time>
      </trkpt>
      <trkpt lat="48.0936" lon="5.4541">
        <ele>426</ele>
        <time>2023-07-05T13:37:17Z</time>
      </trkpt>
      <trkpt lat="48.09368" lon="5.45442">
        <ele>426</ele>
        <time>2023-07-05T13:37:39Z</time>
      </trkpt>
      <trkpt lat="48.09373" lon="5.45473">
        <ele>427</ele>
        <time>2023-07-05T13:38:00Z</time>
      </trkpt>
      <trkpt lat="48.09384" lon="5.45509">
        <ele>429</ele>
        <time>2023-07-05T13:38:24Z</time>
      </trkpt>
      <trkpt lat="48.09402" lon="5.45532">
        <ele>430</ele>
        <time>2023-07-05T13:38:45Z</time>
      </trkpt>
      <trkpt lat="48.09417" lon="5.45542">
        <ele>431</ele>
        <time>2023-07-05T13:39:01Z</time>
      </trkpt>
      <trkpt lat="48.09442" lon="5.45552">
        <ele>432</ele>
        <time>2023-07-05T13:39:26Z</time>
      </trkpt>
      <trkpt lat="48.09462" lon="5.45568">
        <ele>433</ele>
        <time>2023-07-05T13:39:46Z</time>
      </trkpt>
      <trkpt lat="48.09472" lon="5.4559">
        <ele>433</ele>
        <time>2023-07-05T13:40:03Z</time>
      </trkpt>
      <trkpt lat="48.09478" lon="5.45624">
        <ele>434</ele>
        <time>2023-07-05T13:40:25Z</time>
      </trkpt>
      <trkpt lat="48.09481" lon="5.45667">
        <ele>433</ele>
        <time>2023-07-05T13:40:51Z</time>
      </trkpt>
      <trkpt lat="48.09481" lon="5.45703">
        <ele>433</ele>
        <time>2023-07-05T13:41:12Z</time>
      </trkpt>
      <trkpt lat="48.09474" lon="5.4574">
        <ele>433</ele>
        <time>2023-07-05T13:41:36Z</time>
      </trkpt>
      <trkpt lat="48.09464" lon="5.45769">
        <ele>434</ele>
        <time>2023-07-05T13:41:56Z</time>
      </trkpt>
      <trkpt lat="48.09458" lon="5.45788">
        <ele>435</ele>
        <time>2023-07-05T13:42:14Z</time>
      </trkpt>
      <trkpt lat="48.09456" lon="5.45793">
        <ele>435</ele>
        <time>2023-07-05T13:42:29Z</time>
      </trkpt>
      <trkpt lat="48.09446" lon="5.45815">
        <ele>435</ele>
        <time>2023-07-05T13:42:44Z</time>
      </trkpt>
      <trkpt lat="48.09432" lon="5.45839">
        <ele>436</ele>
        <time>2023-07-05T13:43:04Z</time>
      </trkpt>
      <trkpt lat="48.09415" lon="5.45859">
        <ele>435</ele>
        <time>2023-07-05T13:43:24Z</time>
      </trkpt>
      <trkpt lat="48.09412" lon="5.45861">
        <ele>435</ele>
        <time>2023-07-05T13:43:27Z</time>
      </trkpt>
      <trkpt lat="48.09393" lon="5.45863">
        <ele>434</ele>
        <time>2023-07-05T13:43:46Z</time>
      </trkpt>
      <trkpt lat="48.09368" lon="5.45874">
        <ele>433</ele>
        <time>2023-07-05T13:44:08Z</time>
      </trkpt>
      <trkpt lat="48.09361" lon="5.45901">
        <ele>431</ele>
        <time>2023-07-05T13:44:26Z</time>
      </trkpt>
      <trkpt lat="48.09362" lon="5.45919">
        <ele>430</ele>
        <time>2023-07-05T13:44:37Z</time>
      </trkpt>
      <trkpt lat="48.09371" lon="5.45954">
        <ele>427</ele>
        <time>2023-07-05T13:44:57Z</time>
      </trkpt>
      <trkpt lat="48.09372" lon="5.45959">
        <ele>427</ele>
        <time>2023-07-05T13:45:00Z</time>
      </trkpt>
      <trkpt lat="48.09369" lon="5.45966">
        <ele>426</ele>
        <time>2023-07-05T13:45:07Z</time>
      </trkpt>
      <trkpt lat="48.09363" lon="5.45964">
        <ele>425</ele>
        <time>2023-07-05T13:45:12Z</time>
      </trkpt>
      <trkpt lat="48.09358" lon="5.4596">
        <ele>425</ele>
        <time>2023-07-05T13:45:16Z</time>
      </trkpt>
      <trkpt lat="48.09356" lon="5.45961">
        <ele>426</ele>
        <time>2023-07-05T13:45:23Z</time>
      </trkpt>
      <trkpt lat="48.09333" lon="5.45944">
        <ele>424</ele>
        <time>2023-07-05T13:45:43Z</time>
      </trkpt>
      <trkpt lat="48.0931" lon="5.45934">
        <ele>421</ele>
        <time>2023-07-05T13:46:02Z</time>
      </trkpt>
      <trkpt lat="48.093" lon="5.45929">
        <ele>419</ele>
        <time>2023-07-05T13:46:11Z</time>
      </trkpt>
      <trkpt lat="48.09277" lon="5.45918">
        <ele>418</ele>
        <time>2023-07-05T13:46:33Z</time>
      </trkpt>
      <trkpt lat="48.09252" lon="5.45918">
        <ele>416</ele>
        <time>2023-07-05T13:46:52Z</time>
      </trkpt>
      <trkpt lat="48.09226" lon="5.45922">
        <ele>413</ele>
        <time>2023-07-05T13:47:13Z</time>
      </trkpt>
      <trkpt lat="48.09199" lon="5.45925">
        <ele>411</ele>
        <time>2023-07-05T13:47:35Z</time>
      </trkpt>
      <trkpt lat="48.09172" lon="5.45926">
        <ele>409</ele>
        <time>2023-07-05T13:47:57Z</time>
      </trkpt>
      <trkpt lat="48.09149" lon="5.45924">
        <ele>408</ele>
        <time>2023-07-05T13:48:16Z</time>
      </trkpt>
      <trkpt lat="48.09123" lon="5.45926">
        <ele>407</ele>
        <time>2023-07-05T13:48:38Z</time>
      </trkpt>
      <trkpt lat="48.091" lon="5.45931">
        <ele>407</ele>
        <time>2023-07-05T13:49:00Z</time>
      </trkpt>
      <trkpt lat="48.09075" lon="5.45935">
        <ele>407</ele>
        <time>2023-07-05T13:49:23Z</time>
      </trkpt>
      <trkpt lat="48.0905" lon="5.45942">
        <ele>408</ele>
        <time>2023-07-05T13:49:45Z</time>
      </trkpt>
      <trkpt lat="48.0903" lon="5.45939">
        <ele>408</ele>
        <time>2023-07-05T13:50:04Z</time>
      </trkpt>
      <trkpt lat="48.09014" lon="5.45945">
        <ele>409</ele>
        <time>2023-07-05T13:50:21Z</time>
      </trkpt>
      <trkpt lat="48.08998" lon="5.45949">
        <ele>411</ele>
        <time>2023-07-05T13:50:36Z</time>
      </trkpt>
      <trkpt lat="48.08979" lon="5.45951">
        <ele>413</ele>
        <time>2023-07-05T13:50:55Z</time>
      </trkpt>
      <trkpt lat="48.08961" lon="5.45951">
        <ele>413</ele>
        <time>2023-07-05T13:51:12Z</time>
      </trkpt>
      <trkpt lat="48.08945" lon="5.45944">
        <ele>414</ele>
        <time>2023-07-05T13:51:27Z</time>
      </trkpt>
      <trkpt lat="48.08937" lon="5.45941">
        <ele>414</ele>
        <time>2023-07-05T13:51:45Z</time>
      </trkpt>
      <trkpt lat="48.08935" lon="5.4594">
        <ele>414</ele>
        <time>2023-07-05T13:52:11Z</time>
      </trkpt>
      <trkpt lat="48.08914" lon="5.45932">
        <ele>415</ele>
        <time>2023-07-05T13:52:29Z</time>
      </trkpt>
      <trkpt lat="48.08889" lon="5.45927">
        <ele>417</ele>
        <time>2023-07-05T13:52:51Z</time>
      </trkpt>
      <trkpt lat="48.08866" lon="5.45926">
        <ele>418</ele>
        <time>2023-07-05T13:53:12Z</time>
      </trkpt>
      <trkpt lat="48.08845" lon="5.45927">
        <ele>419</ele>
        <time>2023-07-05T13:53:32Z</time>
      </trkpt>
      <trkpt lat="48.08823" lon="5.45926">
        <ele>420</ele>
        <time>2023-07-05T13:53:50Z</time>
      </trkpt>
      <trkpt lat="48.08806" lon="5.45927">
        <ele>421</ele>
        <time>2023-07-05T13:54:07Z</time>
      </trkpt>
      <trkpt lat="48.08786" lon="5.45927">
        <ele>424</ele>
        <time>2023-07-05T13:54:26Z</time>
      </trkpt>
      <trkpt lat="48.08769" lon="5.45928">
        <ele>425</ele>
        <time>2023-07-05T13:54:43Z</time>
      </trkpt>
      <trkpt lat="48.08748" lon="5.45932">
        <ele>426</ele>
        <time>2023-07-05T13:55:04Z</time>
      </trkpt>
      <trkpt lat="48.0873" lon="5.45935">
        <ele>427</ele>
        <time>2023-07-05T13:55:21Z</time>
      </trkpt>
      <trkpt lat="48.08711" lon="5.4594">
        <ele>429</ele>
        <time>2023-07-05T13:55:40Z</time>
      </trkpt>
      <trkpt lat="48.08691" lon="5.45946">
        <ele>429</ele>
        <time>2023-07-05T13:56:00Z</time>
      </trkpt>
      <trkpt lat="48.08668" lon="5.45952">
        <ele>431</ele>
        <time>2023-07-05T13:56:22Z</time>
      </trkpt>
      <trkpt lat="48.08648" lon="5.45953">
        <ele>432</ele>
        <time>2023-07-05T13:56:42Z</time>
      </trkpt>
      <trkpt lat="48.08626" lon="5.45956">
        <ele>432</ele>
        <time>2023-07-05T13:57:03Z</time>
      </trkpt>
      <trkpt lat="48.08607" lon="5.45955">
        <ele>434</ele>
        <time>2023-07-05T13:57:21Z</time>
      </trkpt>
      <trkpt lat="48.08588" lon="5.45954">
        <ele>434</ele>
        <time>2023-07-05T13:57:37Z</time>
      </trkpt>
      <trkpt lat="48.08572" lon="5.45959">
        <ele>435</ele>
        <time>2023-07-05T13:57:53Z</time>
      </trkpt>
      <trkpt lat="48.08553" lon="5.45962">
        <ele>436</ele>
        <time>2023-07-05T13:58:10Z</time>
      </trkpt>
      <trkpt lat="48.08536" lon="5.4596">
        <ele>436</ele>
        <time>2023-07-05T13:58:27Z</time>
      </trkpt>
      <trkpt lat="48.08519" lon="5.45956">
        <ele>435</ele>
        <time>2023-07-05T13:58:40Z</time>
      </trkpt>
      <trkpt lat="48.08499" lon="5.45952">
        <ele>436</ele>
        <time>2023-07-05T13:58:56Z</time>
      </trkpt>
      <trkpt lat="48.08495" lon="5.4595">
        <ele>435</ele>
        <time>2023-07-05T13:59:01Z</time>
      </trkpt>
      <trkpt lat="48.08475" lon="5.45948">
        <ele>436</ele>
        <time>2023-07-05T13:59:19Z</time>
      </trkpt>
      <trkpt lat="48.08457" lon="5.45941">
        <ele>436</ele>
        <time>2023-07-05T13:59:35Z</time>
      </trkpt>
      <trkpt lat="48.0845" lon="5.45937">
        <ele>436</ele>
        <time>2023-07-05T13:59:43Z</time>
      </trkpt>
      <trkpt lat="48.08447" lon="5.45938">
        <ele>436</ele>
        <time>2023-07-05T13:59:46Z</time>
      </trkpt>
      <trkpt lat="48.08428" lon="5.45937">
        <ele>436</ele>
        <time>2023-07-05T14:00:05Z</time>
      </trkpt>
      <trkpt lat="48.08421" lon="5.45939">
        <ele>436</ele>
        <time>2023-07-05T14:00:20Z</time>
      </trkpt>
      <trkpt lat="48.08407" lon="5.45933">
        <ele>436</ele>
        <time>2023-07-05T14:00:35Z</time>
      </trkpt>
      <trkpt lat="48.08388" lon="5.4593">
        <ele>436</ele>
        <time>2023-07-05T14:00:51Z</time>
      </trkpt>
      <trkpt lat="48.08369" lon="5.45934">
        <ele>437</ele>
        <time>2023-07-05T14:01:10Z</time>
      </trkpt>
      <trkpt lat="48.08363" lon="5.45936">
        <ele>437</ele>
        <time>2023-07-05T14:01:29Z</time>
      </trkpt>
      <trkpt lat="48.0835" lon="5.45939">
        <ele>437</ele>
        <time>2023-07-05T14:01:40Z</time>
      </trkpt>
      <trkpt lat="48.08338" lon="5.4595">
        <ele>437</ele>
        <time>2023-07-05T14:01:54Z</time>
      </trkpt>
      <trkpt lat="48.08312" lon="5.45957">
        <ele>437</ele>
        <time>2023-07-05T14:02:12Z</time>
      </trkpt>
      <trkpt lat="48.08288" lon="5.45941">
        <ele>437</ele>
        <time>2023-07-05T14:02:36Z</time>
      </trkpt>
      <trkpt lat="48.08272" lon="5.45913">
        <ele>438</ele>
        <time>2023-07-05T14:02:59Z</time>
      </trkpt>
      <trkpt lat="48.08269" lon="5.45895">
        <ele>438</ele>
        <time>2023-07-05T14:03:10Z</time>
      </trkpt>
      <trkpt lat="48.08274" lon="5.45865">
        <ele>439</ele>
        <time>2023-07-05T14:03:28Z</time>
      </trkpt>
      <trkpt lat="48.08277" lon="5.45837">
        <ele>440</ele>
        <time>2023-07-05T14:03:46Z</time>
      </trkpt>
      <trkpt lat="48.08282" lon="5.4581">
        <ele>441</ele>
        <time>2023-07-05T14:04:03Z</time>
      </trkpt>
      <trkpt lat="48.08288" lon="5.45784">
        <ele>441</ele>
        <time>2023-07-05T14:04:23Z</time>
      </trkpt>
      <trkpt lat="48.08289" lon="5.45743">
        <ele>442</ele>
        <time>2023-07-05T14:04:43Z</time>
      </trkpt>
      <trkpt lat="48.08289" lon="5.45705">
        <ele>443</ele>
        <time>2023-07-05T14:05:05Z</time>
      </trkpt>
      <trkpt lat="48.08279" lon="5.45666">
        <ele>444</ele>
        <time>2023-07-05T14:05:28Z</time>
      </trkpt>
      <trkpt lat="48.08273" lon="5.45633">
        <ele>444</ele>
        <time>2023-07-05T14:05:50Z</time>
      </trkpt>
      <trkpt lat="48.08265" lon="5.45597">
        <ele>445</ele>
        <time>2023-07-05T14:06:13Z</time>
      </trkpt>
      <trkpt lat="48.08258" lon="5.45566">
        <ele>446</ele>
        <time>2023-07-05T14:06:33Z</time>
      </trkpt>
      <trkpt lat="48.08242" lon="5.45537">
        <ele>445</ele>
        <time>2023-07-05T14:06:55Z</time>
      </trkpt>
      <trkpt lat="48.08222" lon="5.45511">
        <ele>445</ele>
        <time>2023-07-05T14:07:16Z</time>
      </trkpt>
      <trkpt lat="48.08206" lon="5.45494">
        <ele>446</ele>
        <time>2023-07-05T14:07:32Z</time>
      </trkpt>
      <trkpt lat="48.08185" lon="5.45474">
        <ele>446</ele>
        <time>2023-07-05T14:07:54Z</time>
      </trkpt>
      <trkpt lat="48.08165" lon="5.45451">
        <ele>444</ele>
        <time>2023-07-05T14:08:15Z</time>
      </trkpt>
      <trkpt lat="48.08147" lon="5.45428">
        <ele>444</ele>
        <time>2023-07-05T14:08:38Z</time>
      </trkpt>
      <trkpt lat="48.08126" lon="5.45403">
        <ele>443</ele>
        <time>2023-07-05T14:09:00Z</time>
      </trkpt>
      <trkpt lat="48.08104" lon="5.45375">
        <ele>444</ele>
        <time>2023-07-05T14:09:25Z</time>
      </trkpt>
      <trkpt lat="48.08082" lon="5.45349">
        <ele>445</ele>
        <time>2023-07-05T14:09:50Z</time>
      </trkpt>
      <trkpt lat="48.08057" lon="5.45317">
        <ele>445</ele>
        <time>2023-07-05T14:10:17Z</time>
      </trkpt>
      <trkpt lat="48.08042" lon="5.45296">
        <ele>445</ele>
        <time>2023-07-05T14:10:35Z</time>
      </trkpt>
      <trkpt lat="48.08019" lon="5.45268">
        <ele>445</ele>
        <time>2023-07-05T14:11:00Z</time>
      </trkpt>
      <trkpt lat="48.08001" lon="5.45241">
        <ele>445</ele>
        <time>2023-07-05T14:11:21Z</time>
      </trkpt>
      <trkpt lat="48.07986" lon="5.45219">
        <ele>444</ele>
        <time>2023-07-05T14:11:40Z</time>
      </trkpt>
      <trkpt lat="48.07968" lon="5.45195">
        <ele>444</ele>
        <time>2023-07-05T14:12:00Z</time>
      </trkpt>
      <trkpt lat="48.07951" lon="5.45169">
        <ele>443</ele>
        <time>2023-07-05T14:12:20Z</time>
      </trkpt>
      <trkpt lat="48.07934" lon="5.45139">
        <ele>442</ele>
        <time>2023-07-05T14:12:43Z</time>
      </trkpt>
      <trkpt lat="48.0792" lon="5.45109">
        <ele>441</ele>
        <time>2023-07-05T14:13:03Z</time>
      </trkpt>
      <trkpt lat="48.07906" lon="5.45074">
        <ele>440</ele>
        <time>2023-07-05T14:13:27Z</time>
      </trkpt>
      <trkpt lat="48.07891" lon="5.45033">
        <ele>439</ele>
        <time>2023-07-05T14:13:52Z</time>
      </trkpt>
      <trkpt lat="48.07878" lon="5.45001">
        <ele>438</ele>
        <time>2023-07-05T14:14:14Z</time>
      </trkpt>
      <trkpt lat="48.07864" lon="5.4497">
        <ele>438</ele>
        <time>2023-07-05T14:14:35Z</time>
      </trkpt>
      <trkpt lat="48.07848" lon="5.4494">
        <ele>438</ele>
        <time>2023-07-05T14:14:57Z</time>
      </trkpt>
      <trkpt lat="48.07833" lon="5.4491">
        <ele>438</ele>
        <time>2023-07-05T14:15:18Z</time>
      </trkpt>
      <trkpt lat="48.07817" lon="5.44878">
        <ele>438</ele>
        <time>2023-07-05T14:15:42Z</time>
      </trkpt>
      <trkpt lat="48.078" lon="5.44848">
        <ele>438</ele>
        <time>2023-07-05T14:16:05Z</time>
      </trkpt>
      <trkpt lat="48.07784" lon="5.44819">
        <ele>438</ele>
        <time>2023-07-05T14:16:26Z</time>
      </trkpt>
      <trkpt lat="48.0777" lon="5.44794">
        <ele>438</ele>
        <time>2023-07-05T14:16:47Z</time>
      </trkpt>
      <trkpt lat="48.07752" lon="5.44762">
        <ele>438</ele>
        <time>2023-07-05T14:17:11Z</time>
      </trkpt>
      <trkpt lat="48.07735" lon="5.44736">
        <ele>439</ele>
        <time>2023-07-05T14:17:33Z</time>
      </trkpt>
      <trkpt lat="48.07727" lon="5.44721">
        <ele>440</ele>
        <time>2023-07-05T14:17:45Z</time>
      </trkpt>
      <trkpt lat="48.0771" lon="5.44696">
        <ele>440</ele>
        <time>2023-07-05T14:18:06Z</time>
      </trkpt>
      <trkpt lat="48.07693" lon="5.44666">
        <ele>440</ele>
        <time>2023-07-05T14:18:29Z</time>
      </trkpt>
      <trkpt lat="48.07677" lon="5.44636">
        <ele>441</ele>
        <time>2023-07-05T14:18:51Z</time>
      </trkpt>
      <trkpt lat="48.07669" lon="5.44614">
        <ele>442</ele>
        <time>2023-07-05T14:19:06Z</time>
      </trkpt>
      <trkpt lat="48.07656" lon="5.44582">
        <ele>441</ele>
        <time>2023-07-05T14:19:28Z</time>
      </trkpt>
      <trkpt lat="48.07645" lon="5.44553">
        <ele>442</ele>
        <time>2023-07-05T14:19:48Z</time>
      </trkpt>
      <trkpt lat="48.07631" lon="5.44515">
        <ele>442</ele>
        <time>2023-07-05T14:20:14Z</time>
      </trkpt>
      <trkpt lat="48.0762" lon="5.44481">
        <ele>441</ele>
        <time>2023-07-05T14:20:37Z</time>
      </trkpt>
      <trkpt lat="48.07611" lon="5.44446">
        <ele>440</ele>
        <time>2023-07-05T14:20:59Z</time>
      </trkpt>
      <trkpt lat="48.07604" lon="5.44414">
        <ele>440</ele>
        <time>2023-07-05T14:21:18Z</time>
      </trkpt>
      <trkpt lat="48.07598" lon="5.44381">
        <ele>440</ele>
        <time>2023-07-05T14:21:39Z</time>
      </trkpt>
      <trkpt lat="48.07596" lon="5.44357">
        <ele>439</ele>
        <time>2023-07-05T14:21:54Z</time>
      </trkpt>
      <trkpt lat="48.07594" lon="5.44322">
        <ele>438</ele>
        <time>2023-07-05T14:22:15Z</time>
      </trkpt>
      <trkpt lat="48.07596" lon="5.44279">
        <ele>437</ele>
        <time>2023-07-05T14:22:39Z</time>
      </trkpt>
      <trkpt lat="48.07598" lon="5.44251">
        <ele>435</ele>
        <time>2023-07-05T14:22:55Z</time>
      </trkpt>
      <trkpt lat="48.07599" lon="5.44242">
        <ele>435</ele>
        <time>2023-07-05T14:23:01Z</time>
      </trkpt>
      <trkpt lat="48.07606" lon="5.44212">
        <ele>432</ele>
        <time>2023-07-05T14:23:22Z</time>
      </trkpt>
      <trkpt lat="48.07616" lon="5.44183">
        <ele>430</ele>
        <time>2023-07-05T14:23:39Z</time>
      </trkpt>
      <trkpt lat="48.07621" lon="5.44154">
        <ele>429</ele>
        <time>2023-07-05T14:23:56Z</time>
      </trkpt>
      <trkpt lat="48.07617" lon="5.44121">
        <ele>426</ele>
        <time>2023-07-05T14:24:16Z</time>
      </trkpt>
      <trkpt lat="48.07605" lon="5.44086">
        <ele>423</ele>
        <time>2023-07-05T14:24:36Z</time>
      </trkpt>
      <trkpt lat="48.07594" lon="5.44061">
        <ele>420</ele>
        <time>2023-07-05T14:24:53Z</time>
      </trkpt>
      <trkpt lat="48.07591" lon="5.44047">
        <ele>418</ele>
        <time>2023-07-05T14:25:02Z</time>
      </trkpt>
      <trkpt lat="48.07583" lon="5.44015">
        <ele>417</ele>
        <time>2023-07-05T14:25:24Z</time>
      </trkpt>
      <trkpt lat="48.07571" lon="5.43979">
        <ele>415</ele>
        <time>2023-07-05T14:25:46Z</time>
      </trkpt>
      <trkpt lat="48.0757" lon="5.43974">
        <ele>414</ele>
        <time>2023-07-05T14:25:49Z</time>
      </trkpt>
      <trkpt lat="48.07563" lon="5.43943">
        <ele>413</ele>
        <time>2023-07-05T14:26:10Z</time>
      </trkpt>
      <trkpt lat="48.07551" lon="5.43904">
        <ele>411</ele>
        <time>2023-07-05T14:26:34Z</time>
      </trkpt>
      <trkpt lat="48.07543" lon="5.43876">
        <ele>409</ele>
        <time>2023-07-05T14:26:52Z</time>
      </trkpt>
      <trkpt lat="48.07534" lon="5.43843">
        <ele>408</ele>
        <time>2023-07-05T14:27:13Z</time>
      </trkpt>
      <trkpt lat="48.07534" lon="5.43842">
        <ele>408</ele>
        <time>2023-07-05T14:27:14Z</time>
      </trkpt>
      <trkpt lat="48.07535" lon="5.43829">
        <ele>409</ele>
        <time>2023-07-05T14:27:21Z</time>
      </trkpt>
      <trkpt lat="48.07532" lon="5.43809">
        <ele>408</ele>
        <time>2023-07-05T14:27:34Z</time>
      </trkpt>
      <trkpt lat="48.07525" lon="5.43782">
        <ele>406</ele>
        <time>2023-07-05T14:27:54Z</time>
      </trkpt>
      <trkpt lat="48.07523" lon="5.43774">
        <ele>405</ele>
        <time>2023-07-05T14:28:11Z</time>
      </trkpt>
      <trkpt lat="48.07512" lon="5.43748">
        <ele>403</ele>
        <time>2023-07-05T14:28:28Z</time>
      </trkpt>
      <trkpt lat="48.07497" lon="5.43718">
        <ele>402</ele>
        <time>2023-07-05T14:28:47Z</time>
      </trkpt>
      <trkpt lat="48.07485" lon="5.43713">
        <ele>401</ele>
        <time>2023-07-05T14:28:59Z</time>
      </trkpt>
      <trkpt lat="48.07481" lon="5.43715">
        <ele>401</ele>
        <time>2023-07-05T14:29:03Z</time>
      </trkpt>
      <trkpt lat="48.07467" lon="5.43742">
        <ele>399</ele>
        <time>2023-07-05T14:29:24Z</time>
      </trkpt>
      <trkpt lat="48.0746" lon="5.43769">
        <ele>398</ele>
        <time>2023-07-05T14:29:41Z</time>
      </trkpt>
      <trkpt lat="48.07458" lon="5.43791">
        <ele>397</ele>
        <time>2023-07-05T14:29:53Z</time>
      </trkpt>
      <trkpt lat="48.07454" lon="5.4382">
        <ele>396</ele>
        <time>2023-07-05T14:30:12Z</time>
      </trkpt>
      <trkpt lat="48.0744" lon="5.43848">
        <ele>395</ele>
        <time>2023-07-05T14:30:31Z</time>
      </trkpt>
      <trkpt lat="48.07424" lon="5.43879">
        <ele>393</ele>
        <time>2023-07-05T14:30:54Z</time>
      </trkpt>
      <trkpt lat="48.0742" lon="5.43876">
        <ele>392</ele>
        <time>2023-07-05T14:30:57Z</time>
      </trkpt>
      <trkpt lat="48.07395" lon="5.4387">
        <ele>391</ele>
        <time>2023-07-05T14:31:16Z</time>
      </trkpt>
      <trkpt lat="48.07387" lon="5.43866">
        <ele>390</ele>
        <time>2023-07-05T14:31:22Z</time>
      </trkpt>
      <trkpt lat="48.07372" lon="5.43859">
        <ele>390</ele>
        <time>2023-07-05T14:31:36Z</time>
      </trkpt>
      <trkpt lat="48.07351" lon="5.43851">
        <ele>392</ele>
        <time>2023-07-05T14:31:55Z</time>
      </trkpt>
      <trkpt lat="48.07335" lon="5.43851">
        <ele>391</ele>
        <time>2023-07-05T14:32:09Z</time>
      </trkpt>
      <trkpt lat="48.07327" lon="5.43859">
        <ele>391</ele>
        <time>2023-07-05T14:32:26Z</time>
      </trkpt>
      <trkpt lat="48.07325" lon="5.43859">
        <ele>392</ele>
        <time>2023-07-05T14:32:27Z</time>
      </trkpt>
      <trkpt lat="48.07309" lon="5.43871">
        <ele>393</ele>
        <time>2023-07-05T14:32:45Z</time>
      </trkpt>
      <trkpt lat="48.07289" lon="5.43885">
        <ele>393</ele>
        <time>2023-07-05T14:33:04Z</time>
      </trkpt>
      <trkpt lat="48.07281" lon="5.43893">
        <ele>394</ele>
        <time>2023-07-05T14:33:22Z</time>
      </trkpt>
      <trkpt lat="48.07264" lon="5.43907">
        <ele>396</ele>
        <time>2023-07-05T14:33:40Z</time>
      </trkpt>
      <trkpt lat="48.07244" lon="5.4392">
        <ele>397</ele>
        <time>2023-07-05T14:34:00Z</time>
      </trkpt>
      <trkpt lat="48.07222" lon="5.43939">
        <ele>398</ele>
        <time>2023-07-05T14:34:22Z</time>
      </trkpt>
      <trkpt lat="48.07199" lon="5.43955">
        <ele>400</ele>
        <time>2023-07-05T14:34:45Z</time>
      </trkpt>
      <trkpt lat="48.07178" lon="5.4397">
        <ele>400</ele>
        <time>2023-07-05T14:35:05Z</time>
      </trkpt>
      <trkpt lat="48.07159" lon="5.43983">
        <ele>401</ele>
        <time>2023-07-05T14:35:25Z</time>
      </trkpt>
      <trkpt lat="48.07141" lon="5.43999">
        <ele>402</ele>
        <time>2023-07-05T14:35:46Z</time>
      </trkpt>
      <trkpt lat="48.07124" lon="5.44011">
        <ele>404</ele>
        <time>2023-07-05T14:36:03Z</time>
      </trkpt>
      <trkpt lat="48.07102" lon="5.44029">
        <ele>406</ele>
        <time>2023-07-05T14:36:27Z</time>
      </trkpt>
      <trkpt lat="48.07079" lon="5.44046">
        <ele>407</ele>
        <time>2023-07-05T14:36:50Z</time>
      </trkpt>
      <trkpt lat="48.07055" lon="5.44065">
        <ele>408</ele>
        <time>2023-07-05T14:37:16Z</time>
      </trkpt>
      <trkpt lat="48.07035" lon="5.44081">
        <ele>409</ele>
        <time>2023-07-05T14:37:37Z</time>
      </trkpt>
      <trkpt lat="48.07015" lon="5.44099">
        <ele>411</ele>
        <time>2023-07-05T14:37:59Z</time>
      </trkpt>
      <trkpt lat="48.07001" lon="5.44114">
        <ele>411</ele>
        <time>2023-07-05T14:38:16Z</time>
      </trkpt>
      <trkpt lat="48.06984" lon="5.44141">
        <ele>411</ele>
        <time>2023-07-05T14:38:39Z</time>
      </trkpt>
      <trkpt lat="48.06972" lon="5.44162">
        <ele>413</ele>
        <time>2023-07-05T14:38:57Z</time>
      </trkpt>
      <trkpt lat="48.0696" lon="5.4419">
        <ele>413</ele>
        <time>2023-07-05T14:39:18Z</time>
      </trkpt>
      <trkpt lat="48.0695" lon="5.44213">
        <ele>414</ele>
        <time>2023-07-05T14:39:35Z</time>
      </trkpt>
      <trkpt lat="48.06937" lon="5.44239">
        <ele>413</ele>
        <time>2023-07-05T14:39:56Z</time>
      </trkpt>
      <trkpt lat="48.0692" lon="5.44263">
        <ele>413</ele>
        <time>2023-07-05T14:40:18Z</time>
      </trkpt>
      <trkpt lat="48.06899" lon="5.44282">
        <ele>412</ele>
        <time>2023-07-05T14:40:41Z</time>
      </trkpt>
      <trkpt lat="48.0688" lon="5.44303">
        <ele>411</ele>
        <time>2023-07-05T14:41:03Z</time>
      </trkpt>
      <trkpt lat="48.06859" lon="5.44324">
        <ele>411</ele>
        <time>2023-07-05T14:41:27Z</time>
      </trkpt>
      <trkpt lat="48.06838" lon="5.44345">
        <ele>411</ele>
        <time>2023-07-05T14:41:50Z</time>
      </trkpt>
      <trkpt lat="48.0682" lon="5.44361">
        <ele>412</ele>
        <time>2023-07-05T14:42:10Z</time>
      </trkpt>
      <trkpt lat="48.06801" lon="5.44378">
        <ele>412</ele>
        <time>2023-07-05T14:42:31Z</time>
      </trkpt>
      <trkpt lat="48.06781" lon="5.44391">
        <ele>413</ele>
        <time>2023-07-05T14:42:51Z</time>
      </trkpt>
      <trkpt lat="48.06755" lon="5.44404">
        <ele>413</ele>
        <time>2023-07-05T14:43:17Z</time>
      </trkpt>
      <trkpt lat="48.06733" lon="5.44414">
        <ele>413</ele>
        <time>2023-07-05T14:43:40Z</time>
      </trkpt>
      <trkpt lat="48.06711" lon="5.44419">
        <ele>413</ele>
        <time>2023-07-05T14:44:01Z</time>
      </trkpt>
      <trkpt lat="48.06686" lon="5.44423">
        <ele>412</ele>
        <time>2023-07-05T14:44:23Z</time>
      </trkpt>
      <trkpt lat="48.06661" lon="5.44426">
        <ele>412</ele>
        <time>2023-07-05T14:44:46Z</time>
      </trkpt>
      <trkpt lat="48.06637" lon="5.44431">
        <ele>412</ele>
        <time>2023-07-05T14:45:08Z</time>
      </trkpt>
      <trkpt lat="48.06615" lon="5.44441">
        <ele>413</ele>
        <time>2023-07-05T14:45:29Z</time>
      </trkpt>
      <trkpt lat="48.06596" lon="5.44455">
        <ele>413</ele>
        <time>2023-07-05T14:45:50Z</time>
      </trkpt>
      <trkpt lat="48.06591" lon="5.44458">
        <ele>413</ele>
        <time>2023-07-05T14:45:55Z</time>
      </trkpt>
      <trkpt lat="48.06572" lon="5.44484">
        <ele>413</ele>
        <time>2023-07-05T14:46:19Z</time>
      </trkpt>
      <trkpt lat="48.06556" lon="5.4451">
        <ele>412</ele>
        <time>2023-07-05T14:46:42Z</time>
      </trkpt>
      <trkpt lat="48.06539" lon="5.44536">
        <ele>412</ele>
        <time>2023-07-05T14:47:05Z</time>
      </trkpt>
      <trkpt lat="48.06527" lon="5.44555">
        <ele>412</ele>
        <time>2023-07-05T14:47:22Z</time>
      </trkpt>
      <trkpt lat="48.06504" lon="5.44547">
        <ele>410</ele>
        <time>2023-07-05T14:47:45Z</time>
      </trkpt>
      <trkpt lat="48.06495" lon="5.44534">
        <ele>408</ele>
        <time>2023-07-05T14:48:02Z</time>
      </trkpt>
      <trkpt lat="48.0649" lon="5.4453">
        <ele>409</ele>
        <time>2023-07-05T14:48:38Z</time>
      </trkpt>
      <trkpt lat="48.06488" lon="5.44528">
        <ele>408</ele>
        <time>2023-07-05T14:48:40Z</time>
      </trkpt>
      <trkpt lat="48.06465" lon="5.44505">
        <ele>407</ele>
        <time>2023-07-05T14:49:04Z</time>
      </trkpt>
      <trkpt lat="48.06445" lon="5.44481">
        <ele>406</ele>
        <time>2023-07-05T14:49:26Z</time>
      </trkpt>
      <trkpt lat="48.06425" lon="5.44456">
        <ele>404</ele>
        <time>2023-07-05T14:49:50Z</time>
      </trkpt>
      <trkpt lat="48.06403" lon="5.44428">
        <ele>404</ele>
        <time>2023-07-05T14:50:15Z</time>
      </trkpt>
      <trkpt lat="48.06392" lon="5.44412">
        <ele>403</ele>
        <time>2023-07-05T14:50:31Z</time>
      </trkpt>
      <trkpt lat="48.06372" lon="5.44386">
        <ele>401</ele>
        <time>2023-07-05T14:50:55Z</time>
      </trkpt>
      <trkpt lat="48.06354" lon="5.4436">
        <ele>400</ele>
        <time>2023-07-05T14:51:18Z</time>
      </trkpt>
      <trkpt lat="48.06334" lon="5.44334">
        <ele>399</ele>
        <time>2023-07-05T14:51:42Z</time>
      </trkpt>
      <trkpt lat="48.06318" lon="5.44309">
        <ele>397</ele>
        <time>2023-07-05T14:52:03Z</time>
      </trkpt>
      <trkpt lat="48.06302" lon="5.44289">
        <ele>396</ele>
        <time>2023-07-05T14:52:21Z</time>
      </trkpt>
      <trkpt lat="48.06286" lon="5.44268">
        <ele>395</ele>
        <time>2023-07-05T14:52:41Z</time>
      </trkpt>
      <trkpt lat="48.06274" lon="5.4425">
        <ele>394</ele>
        <time>2023-07-05T14:52:57Z</time>
      </trkpt>
      <trkpt lat="48.06257" lon="5.44227">
        <ele>394</ele>
        <time>2023-07-05T14:53:17Z</time>
      </trkpt>
      <trkpt lat="48.06244" lon="5.44207">
        <ele>393</ele>
        <time>2023-07-05T14:53:35Z</time>
      </trkpt>
      <trkpt lat="48.0623" lon="5.44186">
        <ele>393</ele>
        <time>2023-07-05T14:53:54Z</time>
      </trkpt>
      <trkpt lat="48.06221" lon="5.44178">
        <ele>393</ele>
        <time>2023-07-05T14:54:04Z</time>
      </trkpt>
      <trkpt lat="48.0621" lon="5.4417">
        <ele>392</ele>
        <time>2023-07-05T14:54:23Z</time>
      </trkpt>
      <trkpt lat="48.06194" lon="5.44163">
        <ele>393</ele>
        <time>2023-07-05T14:54:38Z</time>
      </trkpt>
      <trkpt lat="48.06185" lon="5.44162">
        <ele>393</ele>
        <time>2023-07-05T14:54:56Z</time>
      </trkpt>
      <trkpt lat="48.06178" lon="5.44162">
        <ele>393</ele>
        <time>2023-07-05T14:55:09Z</time>
      </trkpt>
      <trkpt lat="48.06158" lon="5.44178">
        <ele>393</ele>
        <time>2023-07-05T14:55:29Z</time>
      </trkpt>
      <trkpt lat="48.06138" lon="5.44196">
        <ele>393</ele>
        <time>2023-07-05T14:55:51Z</time>
      </trkpt>
      <trkpt lat="48.06114" lon="5.44214">
        <ele>393</ele>
        <time>2023-07-05T14:56:13Z</time>
      </trkpt>
      <trkpt lat="48.06093" lon="5.44233">
        <ele>392</ele>
        <time>2023-07-05T14:56:36Z</time>
      </trkpt>
      <trkpt lat="48.06069" lon="5.4425">
        <ele>392</ele>
        <time>2023-07-05T14:56:59Z</time>
      </trkpt>
      <trkpt lat="48.06045" lon="5.44265">
        <ele>393</ele>
        <time>2023-07-05T14:57:23Z</time>
      </trkpt>
      <trkpt lat="48.06021" lon="5.44273">
        <ele>393</ele>
        <time>2023-07-05T14:57:46Z</time>
      </trkpt>
      <trkpt lat="48.05997" lon="5.44279">
        <ele>394</ele>
        <time>2023-07-05T14:58:08Z</time>
      </trkpt>
      <trkpt lat="48.05976" lon="5.44286">
        <ele>394</ele>
        <time>2023-07-05T14:58:29Z</time>
      </trkpt>
      <trkpt lat="48.05957" lon="5.44292">
        <ele>394</ele>
        <time>2023-07-05T14:58:48Z</time>
      </trkpt>
      <trkpt lat="48.05934" lon="5.44299">
        <ele>396</ele>
        <time>2023-07-05T14:59:10Z</time>
      </trkpt>
      <trkpt lat="48.0591" lon="5.44306">
        <ele>397</ele>
        <time>2023-07-05T14:59:34Z</time>
      </trkpt>
      <trkpt lat="48.05892" lon="5.44311">
        <ele>398</ele>
        <time>2023-07-05T14:59:53Z</time>
      </trkpt>
      <trkpt lat="48.05872" lon="5.44318">
        <ele>399</ele>
        <time>2023-07-05T15:00:13Z</time>
      </trkpt>
      <trkpt lat="48.05849" lon="5.44322">
        <ele>399</ele>
        <time>2023-07-05T15:00:36Z</time>
      </trkpt>
      <trkpt lat="48.05833" lon="5.44319">
        <ele>400</ele>
        <time>2023-07-05T15:00:52Z</time>
      </trkpt>
      <trkpt lat="48.05821" lon="5.44313">
        <ele>401</ele>
        <time>2023-07-05T15:01:06Z</time>
      </trkpt>
      <trkpt lat="48.05802" lon="5.44306">
        <ele>400</ele>
        <time>2023-07-05T15:01:24Z</time>
      </trkpt>
      <trkpt lat="48.05779" lon="5.443">
        <ele>401</ele>
        <time>2023-07-05T15:01:46Z</time>
      </trkpt>
      <trkpt lat="48.05758" lon="5.44294">
        <ele>401</ele>
        <time>2023-07-05T15:02:05Z</time>
      </trkpt>
      <trkpt lat="48.05737" lon="5.44292">
        <ele>403</ele>
        <time>2023-07-05T15:02:25Z</time>
      </trkpt>
      <trkpt lat="48.05718" lon="5.4429">
        <ele>404</ele>
        <time>2023-07-05T15:02:45Z</time>
      </trkpt>
      <trkpt lat="48.05697" lon="5.44293">
        <ele>405</ele>
        <time>2023-07-05T15:03:06Z</time>
      </trkpt>
      <trkpt lat="48.05675" lon="5.44307">
        <ele>406</ele>
        <time>2023-07-05T15:03:29Z</time>
      </trkpt>
      <trkpt lat="48.05651" lon="5.44326">
        <ele>407</ele>
        <time>2023-07-05T15:03:55Z</time>
      </trkpt>
      <trkpt lat="48.05632" lon="5.44339">
        <ele>408</ele>
        <time>2023-07-05T15:04:15Z</time>
      </trkpt>
      <trkpt lat="48.05606" lon="5.44347">
        <ele>408</ele>
        <time>2023-07-05T15:04:40Z</time>
      </trkpt>
      <trkpt lat="48.05588" lon="5.4435">
        <ele>408</ele>
        <time>2023-07-05T15:04:58Z</time>
      </trkpt>
      <trkpt lat="48.05565" lon="5.44355">
        <ele>408</ele>
        <time>2023-07-05T15:05:20Z</time>
      </trkpt>
      <trkpt lat="48.05542" lon="5.44358">
        <ele>409</ele>
        <time>2023-07-05T15:05:43Z</time>
      </trkpt>
      <trkpt lat="48.05516" lon="5.4436">
        <ele>409</ele>
        <time>2023-07-05T15:06:08Z</time>
      </trkpt>
      <trkpt lat="48.05498" lon="5.44366">
        <ele>410</ele>
        <time>2023-07-05T15:06:27Z</time>
      </trkpt>
      <trkpt lat="48.05474" lon="5.44377">
        <ele>411</ele>
        <time>2023-07-05T15:06:51Z</time>
      </trkpt>
      <trkpt lat="48.05452" lon="5.44389">
        <ele>411</ele>
        <time>2023-07-05T15:07:14Z</time>
      </trkpt>
      <trkpt lat="48.05428" lon="5.44403">
        <ele>412</ele>
        <time>2023-07-05T15:07:38Z</time>
      </trkpt>
      <trkpt lat="48.05405" lon="5.44413">
        <ele>412</ele>
        <time>2023-07-05T15:08:02Z</time>
      </trkpt>
      <trkpt lat="48.05383" lon="5.44422">
        <ele>413</ele>
        <time>2023-07-05T15:08:24Z</time>
      </trkpt>
      <trkpt lat="48.05361" lon="5.44431">
        <ele>413</ele>
        <time>2023-07-05T15:08:45Z</time>
      </trkpt>
      <trkpt lat="48.05337" lon="5.44441">
        <ele>413</ele>
        <time>2023-07-05T15:09:09Z</time>
      </trkpt>
      <trkpt lat="48.05317" lon="5.44447">
        <ele>413</ele>
        <time>2023-07-05T15:09:28Z</time>
      </trkpt>
      <trkpt lat="48.05297" lon="5.44453">
        <ele>413</ele>
        <time>2023-07-05T15:09:50Z</time>
      </trkpt>
      <trkpt lat="48.05274" lon="5.44461">
        <ele>414</ele>
        <time>2023-07-05T15:10:13Z</time>
      </trkpt>
      <trkpt lat="48.05253" lon="5.44473">
        <ele>414</ele>
        <time>2023-07-05T15:10:34Z</time>
      </trkpt>
      <trkpt lat="48.05233" lon="5.44487">
        <ele>413</ele>
        <time>2023-07-05T15:10:55Z</time>
      </trkpt>
      <trkpt lat="48.05214" lon="5.44497">
        <ele>413</ele>
        <time>2023-07-05T15:11:15Z</time>
      </trkpt>
      <trkpt lat="48.05189" lon="5.44506">
        <ele>413</ele>
        <time>2023-07-05T15:11:38Z</time>
      </trkpt>
      <trkpt lat="48.05172" lon="5.44517">
        <ele>413</ele>
        <time>2023-07-05T15:11:56Z</time>
      </trkpt>
      <trkpt lat="48.05155" lon="5.44539">
        <ele>413</ele>
        <time>2023-07-05T15:12:17Z</time>
      </trkpt>
      <trkpt lat="48.05141" lon="5.44556">
        <ele>412</ele>
        <time>2023-07-05T15:12:33Z</time>
      </trkpt>
      <trkpt lat="48.05136" lon="5.44557">
        <ele>412</ele>
        <time>2023-07-05T15:12:39Z</time>
      </trkpt>
      <trkpt lat="48.05113" lon="5.44564">
        <ele>413</ele>
        <time>2023-07-05T15:13:01Z</time>
      </trkpt>
      <trkpt lat="48.05093" lon="5.44571">
        <ele>413</ele>
        <time>2023-07-05T15:13:21Z</time>
      </trkpt>
      <trkpt lat="48.05073" lon="5.44575">
        <ele>413</ele>
        <time>2023-07-05T15:13:42Z</time>
      </trkpt>
      <trkpt lat="48.05052" lon="5.44579">
        <ele>415</ele>
        <time>2023-07-05T15:14:02Z</time>
      </trkpt>
      <trkpt lat="48.0503" lon="5.44583">
        <ele>416</ele>
        <time>2023-07-05T15:14:25Z</time>
      </trkpt>
      <trkpt lat="48.05013" lon="5.44585">
        <ele>418</ele>
        <time>2023-07-05T15:14:44Z</time>
      </trkpt>
      <trkpt lat="48.04994" lon="5.44589">
        <ele>419</ele>
        <time>2023-07-05T15:15:04Z</time>
      </trkpt>
      <trkpt lat="48.04975" lon="5.44592">
        <ele>420</ele>
        <time>2023-07-05T15:15:22Z</time>
      </trkpt>
      <trkpt lat="48.04969" lon="5.44597">
        <ele>419</ele>
        <time>2023-07-05T15:15:28Z</time>
      </trkpt>
      <trkpt lat="48.04962" lon="5.44602">
        <ele>420</ele>
        <time>2023-07-05T15:15:36Z</time>
      </trkpt>
      <trkpt lat="48.04947" lon="5.44635">
        <ele>418</ele>
        <time>2023-07-05T15:16:00Z</time>
      </trkpt>
      <trkpt lat="48.04945" lon="5.4464">
        <ele>418</ele>
        <time>2023-07-05T15:16:04Z</time>
      </trkpt>
      <trkpt lat="48.04942" lon="5.44645">
        <ele>418</ele>
        <time>2023-07-05T15:16:08Z</time>
      </trkpt>
      <trkpt lat="48.04926" lon="5.44654">
        <ele>418</ele>
        <time>2023-07-05T15:16:25Z</time>
      </trkpt>
      <trkpt lat="48.04907" lon="5.44652">
        <ele>417</ele>
        <time>2023-07-05T15:16:44Z</time>
      </trkpt>
      <trkpt lat="48.04886" lon="5.44648">
        <ele>417</ele>
        <time>2023-07-05T15:17:04Z</time>
      </trkpt>
      <trkpt lat="48.04871" lon="5.44645">
        <ele>417</ele>
        <time>2023-07-05T15:17:18Z</time>
      </trkpt>
      <trkpt lat="48.0485" lon="5.44653">
        <ele>416</ele>
        <time>2023-07-05T15:17:39Z</time>
      </trkpt>
      <trkpt lat="48.04839" lon="5.44659">
        <ele>416</ele>
        <time>2023-07-05T15:17:57Z</time>
      </trkpt>
      <trkpt lat="48.04835" lon="5.44661">
        <ele>415</ele>
        <time>2023-07-05T15:18:07Z</time>
      </trkpt>
      <trkpt lat="48.04824" lon="5.44681">
        <ele>414</ele>
        <time>2023-07-05T15:18:25Z</time>
      </trkpt>
      <trkpt lat="48.04808" lon="5.44709">
        <ele>413</ele>
        <time>2023-07-05T15:18:47Z</time>
      </trkpt>
      <trkpt lat="48.04794" lon="5.44732">
        <ele>411</ele>
        <time>2023-07-05T15:19:05Z</time>
      </trkpt>
      <trkpt lat="48.04775" lon="5.44731">
        <ele>409</ele>
        <time>2023-07-05T15:19:25Z</time>
      </trkpt>
      <trkpt lat="48.04762" lon="5.44717">
        <ele>408</ele>
        <time>2023-07-05T15:19:40Z</time>
      </trkpt>
      <trkpt lat="48.04749" lon="5.44695">
        <ele>406</ele>
        <time>2023-07-05T15:20:00Z</time>
      </trkpt>
      <trkpt lat="48.04738" lon="5.44671">
        <ele>405</ele>
        <time>2023-07-05T15:20:17Z</time>
      </trkpt>
      <trkpt lat="48.04726" lon="5.44645">
        <ele>404</ele>
        <time>2023-07-05T15:20:37Z</time>
      </trkpt>
      <trkpt lat="48.04712" lon="5.44621">
        <ele>404</ele>
        <time>2023-07-05T15:20:56Z</time>
      </trkpt>
      <trkpt lat="48.04696" lon="5.44601">
        <ele>403</ele>
        <time>2023-07-05T15:21:16Z</time>
      </trkpt>
      <trkpt lat="48.04674" lon="5.44594">
        <ele>402</ele>
        <time>2023-07-05T15:21:37Z</time>
      </trkpt>
      <trkpt lat="48.04651" lon="5.44591">
        <ele>401</ele>
        <time>2023-07-05T15:21:59Z</time>
      </trkpt>
      <trkpt lat="48.04627" lon="5.44588">
        <ele>400</ele>
        <time>2023-07-05T15:22:23Z</time>
      </trkpt>
      <trkpt lat="48.04602" lon="5.44593">
        <ele>399</ele>
        <time>2023-07-05T15:22:47Z</time>
      </trkpt>
      <trkpt lat="48.04576" lon="5.44601">
        <ele>398</ele>
        <time>2023-07-05T15:23:13Z</time>
      </trkpt>
      <trkpt lat="48.0455" lon="5.4461">
        <ele>396</ele>
        <time>2023-07-05T15:23:38Z</time>
      </trkpt>
      <trkpt lat="48.04535" lon="5.44617">
        <ele>396</ele>
        <time>2023-07-05T15:23:59Z</time>
      </trkpt>
      <trkpt lat="48.04534" lon="5.44619">
        <ele>396</ele>
        <time>2023-07-05T15:24:29Z</time>
      </trkpt>
      <trkpt lat="48.04506" lon="5.44625">
        <ele>395</ele>
        <time>2023-07-05T15:24:53Z</time>
      </trkpt>
      <trkpt lat="48.0448" lon="5.44634">
        <ele>393</ele>
        <time>2023-07-05T15:25:18Z</time>
      </trkpt>
      <trkpt lat="48.04452" lon="5.44642">
        <ele>393</ele>
        <time>2023-07-05T15:25:43Z</time>
      </trkpt>
      <trkpt lat="48.04427" lon="5.44645">
        <ele>391</ele>
        <time>2023-07-05T15:26:06Z</time>
      </trkpt>
      <trkpt lat="48.04405" lon="5.44636">
        <ele>390</ele>
        <time>2023-07-05T15:26:27Z</time>
      </trkpt>
      <trkpt lat="48.04382" lon="5.44625">
        <ele>390</ele>
        <time>2023-07-05T15:26:49Z</time>
      </trkpt>
      <trkpt lat="48.04361" lon="5.44619">
        <ele>390</ele>
        <time>2023-07-05T15:27:10Z</time>
      </trkpt>
      <trkpt lat="48.04334" lon="5.44613">
        <ele>390</ele>
        <time>2023-07-05T15:27:35Z</time>
      </trkpt>
      <trkpt lat="48.04313" lon="5.44607">
        <ele>390</ele>
        <time>2023-07-05T15:27:58Z</time>
      </trkpt>
      <trkpt lat="48.04309" lon="5.44606">
        <ele>390</ele>
        <time>2023-07-05T15:28:02Z</time>
      </trkpt>
      <trkpt lat="48.04289" lon="5.44598">
        <ele>390</ele>
        <time>2023-07-05T15:28:23Z</time>
      </trkpt>
      <trkpt lat="48.04274" lon="5.44591">
        <ele>391</ele>
        <time>2023-07-05T15:28:38Z</time>
      </trkpt>
      <trkpt lat="48.0425" lon="5.44581">
        <ele>391</ele>
        <time>2023-07-05T15:29:03Z</time>
      </trkpt>
      <trkpt lat="48.04225" lon="5.44571">
        <ele>391</ele>
        <time>2023-07-05T15:29:29Z</time>
      </trkpt>
      <trkpt lat="48.042" lon="5.44563">
        <ele>392</ele>
        <time>2023-07-05T15:29:54Z</time>
      </trkpt>
      <trkpt lat="48.04177" lon="5.44558">
        <ele>391</ele>
        <time>2023-07-05T15:30:17Z</time>
      </trkpt>
      <trkpt lat="48.04155" lon="5.44557">
        <ele>392</ele>
        <time>2023-07-05T15:30:39Z</time>
      </trkpt>
      <trkpt lat="48.04132" lon="5.44557">
        <ele>392</ele>
        <time>2023-07-05T15:31:02Z</time>
      </trkpt>
      <trkpt lat="48.04106" lon="5.44559">
        <ele>391</ele>
        <time>2023-07-05T15:31:28Z</time>
      </trkpt>
      <trkpt lat="48.04084" lon="5.44562">
        <ele>392</ele>
        <time>2023-07-05T15:31:49Z</time>
      </trkpt>
      <trkpt lat="48.04058" lon="5.44568">
        <ele>393</ele>
        <time>2023-07-05T15:32:15Z</time>
      </trkpt>
      <trkpt lat="48.04033" lon="5.44573">
        <ele>393</ele>
        <time>2023-07-05T15:32:40Z</time>
      </trkpt>
      <trkpt lat="48.04021" lon="5.44575">
        <ele>393</ele>
        <time>2023-07-05T15:33:03Z</time>
      </trkpt>
      <trkpt lat="48.0402" lon="5.44575">
        <ele>393</ele>
        <time>2023-07-05T15:33:05Z</time>
      </trkpt>
      <trkpt lat="48.04001" lon="5.44581">
        <ele>393</ele>
        <time>2023-07-05T15:33:27Z</time>
      </trkpt>
      <trkpt lat="48.04" lon="5.44584">
        <ele>393</ele>
        <time>2023-07-05T15:33:56Z</time>
      </trkpt>
      <trkpt lat="48.04" lon="5.44586">
        <ele>394</ele>
        <time>2023-07-05T15:34:34Z</time>
      </trkpt>
      <trkpt lat="48.03992" lon="5.44585">
        <ele>394</ele>
        <time>2023-07-05T15:35:03Z</time>
      </trkpt>
      <trkpt lat="48.03967" lon="5.4459">
        <ele>395</ele>
        <time>2023-07-05T15:35:26Z</time>
      </trkpt>
      <trkpt lat="48.03943" lon="5.44586">
        <ele>397</ele>
        <time>2023-07-05T15:35:48Z</time>
      </trkpt>
      <trkpt lat="48.03918" lon="5.44575">
        <ele>398</ele>
        <time>2023-07-05T15:36:10Z</time>
      </trkpt>
      <trkpt lat="48.03896" lon="5.44575">
        <ele>400</ele>
        <time>2023-07-05T15:36:31Z</time>
      </trkpt>
      <trkpt lat="48.03871" lon="5.44584">
        <ele>401</ele>
        <time>2023-07-05T15:36:54Z</time>
      </trkpt>
      <trkpt lat="48.03841" lon="5.44587">
        <ele>400</ele>
        <time>2023-07-05T15:37:21Z</time>
      </trkpt>
      <trkpt lat="48.03818" lon="5.44583">
        <ele>400</ele>
        <time>2023-07-05T15:37:42Z</time>
      </trkpt>
      <trkpt lat="48.03795" lon="5.44568">
        <ele>399</ele>
        <time>2023-07-05T15:38:05Z</time>
      </trkpt>
      <trkpt lat="48.03778" lon="5.44546">
        <ele>398</ele>
        <time>2023-07-05T15:38:25Z</time>
      </trkpt>
      <trkpt lat="48.03762" lon="5.44516">
        <ele>397</ele>
        <time>2023-07-05T15:38:48Z</time>
      </trkpt>
      <trkpt lat="48.03747" lon="5.44494">
        <ele>398</ele>
        <time>2023-07-05T15:39:08Z</time>
      </trkpt>
      <trkpt lat="48.03727" lon="5.44482">
        <ele>396</ele>
        <time>2023-07-05T15:39:30Z</time>
      </trkpt>
      <trkpt lat="48.03702" lon="5.44473">
        <ele>396</ele>
        <time>2023-07-05T15:39:53Z</time>
      </trkpt>
      <trkpt lat="48.03673" lon="5.44467">
        <ele>396</ele>
        <time>2023-07-05T15:40:19Z</time>
      </trkpt>
      <trkpt lat="48.03648" lon="5.44466">
        <ele>396</ele>
        <time>2023-07-05T15:40:42Z</time>
      </trkpt>
      <trkpt lat="48.0362" lon="5.44476">
        <ele>396</ele>
        <time>2023-07-05T15:41:09Z</time>
      </trkpt>
      <trkpt lat="48.03596" lon="5.4449">
        <ele>396</ele>
        <time>2023-07-05T15:41:34Z</time>
      </trkpt>
      <trkpt lat="48.03579" lon="5.44506">
        <ele>396</ele>
        <time>2023-07-05T15:41:54Z</time>
      </trkpt>
      <trkpt lat="48.0357" lon="5.44518">
        <ele>396</ele>
        <time>2023-07-05T15:42:04Z</time>
      </trkpt>
      <trkpt lat="48.03558" lon="5.44536">
        <ele>397</ele>
        <time>2023-07-05T15:42:20Z</time>
      </trkpt>
      <trkpt lat="48.03545" lon="5.44554">
        <ele>396</ele>
        <time>2023-07-05T15:42:35Z</time>
      </trkpt>
      <trkpt lat="48.03532" lon="5.44577">
        <ele>396</ele>
        <time>2023-07-05T15:42:54Z</time>
      </trkpt>
      <trkpt lat="48.03516" lon="5.44601">
        <ele>396</ele>
        <time>2023-07-05T15:43:14Z</time>
      </trkpt>
      <trkpt lat="48.03499" lon="5.44624">
        <ele>396</ele>
        <time>2023-07-05T15:43:35Z</time>
      </trkpt>
      <trkpt lat="48.03484" lon="5.44648">
        <ele>396</ele>
        <time>2023-07-05T15:43:56Z</time>
      </trkpt>
      <trkpt lat="48.0347" lon="5.44667">
        <ele>396</ele>
        <time>2023-07-05T15:44:13Z</time>
      </trkpt>
      <trkpt lat="48.03458" lon="5.44687">
        <ele>396</ele>
        <time>2023-07-05T15:44:28Z</time>
      </trkpt>
      <trkpt lat="48.03445" lon="5.4472">
        <ele>396</ele>
        <time>2023-07-05T15:44:50Z</time>
      </trkpt>
      <trkpt lat="48.03433" lon="5.44743">
        <ele>395</ele>
        <time>2023-07-05T15:45:07Z</time>
      </trkpt>
      <trkpt lat="48.0342" lon="5.44771">
        <ele>394</ele>
        <time>2023-07-05T15:45:29Z</time>
      </trkpt>
      <trkpt lat="48.03405" lon="5.44801">
        <ele>393</ele>
        <time>2023-07-05T15:45:51Z</time>
      </trkpt>
      <trkpt lat="48.03393" lon="5.44823">
        <ele>392</ele>
        <time>2023-07-05T15:46:09Z</time>
      </trkpt>
      <trkpt lat="48.03379" lon="5.4485">
        <ele>390</ele>
        <time>2023-07-05T15:46:31Z</time>
      </trkpt>
      <trkpt lat="48.03372" lon="5.44854">
        <ele>390</ele>
        <time>2023-07-05T15:46:37Z</time>
      </trkpt>
      <trkpt lat="48.03351" lon="5.44836">
        <ele>389</ele>
        <time>2023-07-05T15:46:56Z</time>
      </trkpt>
      <trkpt lat="48.03331" lon="5.44823">
        <ele>389</ele>
        <time>2023-07-05T15:47:14Z</time>
      </trkpt>
      <trkpt lat="48.03311" lon="5.44817">
        <ele>390</ele>
        <time>2023-07-05T15:47:32Z</time>
      </trkpt>
      <trkpt lat="48.0329" lon="5.44801">
        <ele>388</ele>
        <time>2023-07-05T15:47:52Z</time>
      </trkpt>
      <trkpt lat="48.03271" lon="5.4479">
        <ele>388</ele>
        <time>2023-07-05T15:48:09Z</time>
      </trkpt>
      <trkpt lat="48.03255" lon="5.4477">
        <ele>388</ele>
        <time>2023-07-05T15:48:28Z</time>
      </trkpt>
      <trkpt lat="48.03253" lon="5.4475">
        <ele>388</ele>
        <time>2023-07-05T15:48:42Z</time>
      </trkpt>
      <trkpt lat="48.03265" lon="5.44728">
        <ele>388</ele>
        <time>2023-07-05T15:49:00Z</time>
      </trkpt>
      <trkpt lat="48.03276" lon="5.44707">
        <ele>388</ele>
        <time>2023-07-05T15:49:17Z</time>
      </trkpt>
      <trkpt lat="48.0328" lon="5.44693">
        <ele>388</ele>
        <time>2023-07-05T15:49:27Z</time>
      </trkpt>
      <trkpt lat="48.03293" lon="5.44662">
        <ele>387</ele>
        <time>2023-07-05T15:49:48Z</time>
      </trkpt>
      <trkpt lat="48.03306" lon="5.44636">
        <ele>388</ele>
        <time>2023-07-05T15:50:07Z</time>
      </trkpt>
      <trkpt lat="48.03319" lon="5.44608">
        <ele>388</ele>
        <time>2023-07-05T15:50:26Z</time>
      </trkpt>
      <trkpt lat="48.03326" lon="5.44589">
        <ele>388</ele>
        <time>2023-07-05T15:50:41Z</time>
      </trkpt>
      <trkpt lat="48.03338" lon="5.44565">
        <ele>388</ele>
        <time>2023-07-05T15:50:59Z</time>
      </trkpt>
      <trkpt lat="48.03343" lon="5.44547">
        <ele>389</ele>
        <time>2023-07-05T15:51:12Z</time>
      </trkpt>
      <trkpt lat="48.03358" lon="5.44518">
        <ele>389</ele>
        <time>2023-07-05T15:51:35Z</time>
      </trkpt>
      <trkpt lat="48.03371" lon="5.44497">
        <ele>390</ele>
        <time>2023-07-05T15:51:55Z</time>
      </trkpt>
      <trkpt lat="48.03377" lon="5.4448">
        <ele>391</ele>
        <time>2023-07-05T15:52:08Z</time>
      </trkpt>
      <trkpt lat="48.03388" lon="5.44455">
        <ele>392</ele>
        <time>2023-07-05T15:52:27Z</time>
      </trkpt>
      <trkpt lat="48.03399" lon="5.44432">
        <ele>393</ele>
        <time>2023-07-05T15:52:45Z</time>
      </trkpt>
      <trkpt lat="48.03409" lon="5.44416">
        <ele>394</ele>
        <time>2023-07-05T15:53:03Z</time>
      </trkpt>
      <trkpt lat="48.03411" lon="5.44411">
        <ele>394</ele>
        <time>2023-07-05T15:53:17Z</time>
      </trkpt>
      <trkpt lat="48.03412" lon="5.44411">
        <ele>394</ele>
        <time>2023-07-05T15:53:36Z</time>
      </trkpt>
    </trkseg>
  </trk>
</gpx>